<?xml version="1.0" encoding="UTF-8" standalone="no" ?>
<gpx xmlns="http://www.topografix.com/GPX/1/1" xmlns:xsi="http://www.w3.org/2001/XMLSchema-instance" xsi:schemaLocation="http://www.topografix.com/GPX/1/1 http://www.topografix.com/GPX/1/1/gpx.xsd" version="1.1" creator="VisuGPX - https://www.visugpx.com">
  <metadata>
    <name>Le Cougoir depuis Teyssières (Vieux Village)</name>
    <desc><![CDATA[Boucle au départ de Teyssières par le col de Fonturière, la montagne de Sauveginoux, la montagne de la Croix, le Cougoir (en aller/retour), et le col de la Pause.]]></desc>
  </metadata>
  <trk>
    <name><![CDATA[2025-12-07_08-51_Sun]]></name>
    <trkseg>
      <trkpt lat="44.4501" lon="5.13181">
        <ele>653.8</ele>
        <time>2025-12-07T07:54:46Z</time>
      </trkpt>
      <trkpt lat="44.45028" lon="5.13181">
        <ele>651.2</ele>
        <time>2025-12-07T07:55:06Z</time>
      </trkpt>
      <trkpt lat="44.4505" lon="5.13172">
        <ele>649.4</ele>
        <time>2025-12-07T07:55:26Z</time>
      </trkpt>
      <trkpt lat="44.45072" lon="5.1318">
        <ele>647.7</ele>
        <time>2025-12-07T07:55:46Z</time>
      </trkpt>
      <trkpt lat="44.45075" lon="5.13194">
        <ele>646.5</ele>
        <time>2025-12-07T07:56:27Z</time>
      </trkpt>
      <trkpt lat="44.4508" lon="5.13223">
        <ele>646.1</ele>
        <time>2025-12-07T07:56:47Z</time>
      </trkpt>
      <trkpt lat="44.45091" lon="5.13251">
        <ele>646.1</ele>
        <time>2025-12-07T07:57:07Z</time>
      </trkpt>
      <trkpt lat="44.45103" lon="5.13279">
        <ele>645.9</ele>
        <time>2025-12-07T07:57:27Z</time>
      </trkpt>
      <trkpt lat="44.45108" lon="5.13312">
        <ele>646.5</ele>
        <time>2025-12-07T07:57:47Z</time>
      </trkpt>
      <trkpt lat="44.45101" lon="5.13345">
        <ele>646.8</ele>
        <time>2025-12-07T07:58:07Z</time>
      </trkpt>
      <trkpt lat="44.45101" lon="5.13377">
        <ele>646.9</ele>
        <time>2025-12-07T07:58:27Z</time>
      </trkpt>
      <trkpt lat="44.45105" lon="5.13411">
        <ele>648</ele>
        <time>2025-12-07T07:58:47Z</time>
      </trkpt>
      <trkpt lat="44.45108" lon="5.13448">
        <ele>647.6</ele>
        <time>2025-12-07T07:59:07Z</time>
      </trkpt>
      <trkpt lat="44.45109" lon="5.13484">
        <ele>645.6</ele>
        <time>2025-12-07T07:59:28Z</time>
      </trkpt>
      <trkpt lat="44.45109" lon="5.13521">
        <ele>644.7</ele>
        <time>2025-12-07T07:59:48Z</time>
      </trkpt>
      <trkpt lat="44.45107" lon="5.13557">
        <ele>644.5</ele>
        <time>2025-12-07T08:00:08Z</time>
      </trkpt>
      <trkpt lat="44.45106" lon="5.13593">
        <ele>642.5</ele>
        <time>2025-12-07T08:00:28Z</time>
      </trkpt>
      <trkpt lat="44.45118" lon="5.13602">
        <ele>643.6</ele>
        <time>2025-12-07T08:00:48Z</time>
      </trkpt>
      <trkpt lat="44.45124" lon="5.13607">
        <ele>643</ele>
        <time>2025-12-07T08:01:08Z</time>
      </trkpt>
      <trkpt lat="44.4513" lon="5.13639">
        <ele>640.9</ele>
        <time>2025-12-07T08:01:28Z</time>
      </trkpt>
      <trkpt lat="44.45137" lon="5.13673">
        <ele>640.4</ele>
        <time>2025-12-07T08:01:48Z</time>
      </trkpt>
      <trkpt lat="44.45143" lon="5.13708">
        <ele>639.4</ele>
        <time>2025-12-07T08:02:08Z</time>
      </trkpt>
      <trkpt lat="44.45149" lon="5.13741">
        <ele>638.5</ele>
        <time>2025-12-07T08:02:28Z</time>
      </trkpt>
      <trkpt lat="44.45158" lon="5.13762">
        <ele>640.1</ele>
        <time>2025-12-07T08:02:49Z</time>
      </trkpt>
      <trkpt lat="44.45171" lon="5.1378">
        <ele>642.1</ele>
        <time>2025-12-07T08:03:09Z</time>
      </trkpt>
      <trkpt lat="44.45185" lon="5.138">
        <ele>643.7</ele>
        <time>2025-12-07T08:03:29Z</time>
      </trkpt>
      <trkpt lat="44.45199" lon="5.1382">
        <ele>643.9</ele>
        <time>2025-12-07T08:03:49Z</time>
      </trkpt>
      <trkpt lat="44.4522" lon="5.13837">
        <ele>643.8</ele>
        <time>2025-12-07T08:04:09Z</time>
      </trkpt>
      <trkpt lat="44.45237" lon="5.13861">
        <ele>643.7</ele>
        <time>2025-12-07T08:04:29Z</time>
      </trkpt>
      <trkpt lat="44.45252" lon="5.13889">
        <ele>643.7</ele>
        <time>2025-12-07T08:04:49Z</time>
      </trkpt>
      <trkpt lat="44.45271" lon="5.13909">
        <ele>644.1</ele>
        <time>2025-12-07T08:05:09Z</time>
      </trkpt>
      <trkpt lat="44.45286" lon="5.13932">
        <ele>641.8</ele>
        <time>2025-12-07T08:05:29Z</time>
      </trkpt>
      <trkpt lat="44.45292" lon="5.13964">
        <ele>640.8</ele>
        <time>2025-12-07T08:05:49Z</time>
      </trkpt>
      <trkpt lat="44.4529" lon="5.13994">
        <ele>638</ele>
        <time>2025-12-07T08:06:10Z</time>
      </trkpt>
      <trkpt lat="44.45284" lon="5.14021">
        <ele>635.9</ele>
        <time>2025-12-07T08:06:30Z</time>
      </trkpt>
      <trkpt lat="44.45285" lon="5.14053">
        <ele>633</ele>
        <time>2025-12-07T08:06:50Z</time>
      </trkpt>
      <trkpt lat="44.45285" lon="5.14081">
        <ele>631</ele>
        <time>2025-12-07T08:07:10Z</time>
      </trkpt>
      <trkpt lat="44.4529" lon="5.1411">
        <ele>627.3</ele>
        <time>2025-12-07T08:07:30Z</time>
      </trkpt>
      <trkpt lat="44.45286" lon="5.14142">
        <ele>625.4</ele>
        <time>2025-12-07T08:07:50Z</time>
      </trkpt>
      <trkpt lat="44.45288" lon="5.14164">
        <ele>624.6</ele>
        <time>2025-12-07T08:08:10Z</time>
      </trkpt>
      <trkpt lat="44.45296" lon="5.14193">
        <ele>626.1</ele>
        <time>2025-12-07T08:08:30Z</time>
      </trkpt>
      <trkpt lat="44.45299" lon="5.14222">
        <ele>624.2</ele>
        <time>2025-12-07T08:08:50Z</time>
      </trkpt>
      <trkpt lat="44.45304" lon="5.14252">
        <ele>621.5</ele>
        <time>2025-12-07T08:09:10Z</time>
      </trkpt>
      <trkpt lat="44.45311" lon="5.14283">
        <ele>619.4</ele>
        <time>2025-12-07T08:09:31Z</time>
      </trkpt>
      <trkpt lat="44.45319" lon="5.14306">
        <ele>615.4</ele>
        <time>2025-12-07T08:09:51Z</time>
      </trkpt>
      <trkpt lat="44.45323" lon="5.1432">
        <ele>609.8</ele>
        <time>2025-12-07T08:10:11Z</time>
      </trkpt>
      <trkpt lat="44.45326" lon="5.14338">
        <ele>605.9</ele>
        <time>2025-12-07T08:10:31Z</time>
      </trkpt>
      <trkpt lat="44.45323" lon="5.14345">
        <ele>606.8</ele>
        <time>2025-12-07T08:10:51Z</time>
      </trkpt>
      <trkpt lat="44.45321" lon="5.14352">
        <ele>606.8</ele>
        <time>2025-12-07T08:11:11Z</time>
      </trkpt>
      <trkpt lat="44.45315" lon="5.14378">
        <ele>611.4</ele>
        <time>2025-12-07T08:11:31Z</time>
      </trkpt>
      <trkpt lat="44.45312" lon="5.14406">
        <ele>613.9</ele>
        <time>2025-12-07T08:11:51Z</time>
      </trkpt>
      <trkpt lat="44.45307" lon="5.14435">
        <ele>614.9</ele>
        <time>2025-12-07T08:12:11Z</time>
      </trkpt>
      <trkpt lat="44.4529" lon="5.14453">
        <ele>615.5</ele>
        <time>2025-12-07T08:12:31Z</time>
      </trkpt>
      <trkpt lat="44.45274" lon="5.14457">
        <ele>612.9</ele>
        <time>2025-12-07T08:12:52Z</time>
      </trkpt>
      <trkpt lat="44.45256" lon="5.14476">
        <ele>614.2</ele>
        <time>2025-12-07T08:13:12Z</time>
      </trkpt>
      <trkpt lat="44.45245" lon="5.14496">
        <ele>615.6</ele>
        <time>2025-12-07T08:13:32Z</time>
      </trkpt>
      <trkpt lat="44.45234" lon="5.14507">
        <ele>615.9</ele>
        <time>2025-12-07T08:13:52Z</time>
      </trkpt>
      <trkpt lat="44.45221" lon="5.14524">
        <ele>613.5</ele>
        <time>2025-12-07T08:14:12Z</time>
      </trkpt>
      <trkpt lat="44.45209" lon="5.14543">
        <ele>614.3</ele>
        <time>2025-12-07T08:14:32Z</time>
      </trkpt>
      <trkpt lat="44.45194" lon="5.14559">
        <ele>615.1</ele>
        <time>2025-12-07T08:14:52Z</time>
      </trkpt>
      <trkpt lat="44.45177" lon="5.14566">
        <ele>615.8</ele>
        <time>2025-12-07T08:15:12Z</time>
      </trkpt>
      <trkpt lat="44.45174" lon="5.1457">
        <ele>618.2</ele>
        <time>2025-12-07T08:15:40Z</time>
      </trkpt>
      <trkpt lat="44.45164" lon="5.14589">
        <ele>625.1</ele>
        <time>2025-12-07T08:16:00Z</time>
      </trkpt>
      <trkpt lat="44.45166" lon="5.14614">
        <ele>627.3</ele>
        <time>2025-12-07T08:16:20Z</time>
      </trkpt>
      <trkpt lat="44.4517" lon="5.14637">
        <ele>629.2</ele>
        <time>2025-12-07T08:16:40Z</time>
      </trkpt>
      <trkpt lat="44.45171" lon="5.1466">
        <ele>634.7</ele>
        <time>2025-12-07T08:17:00Z</time>
      </trkpt>
      <trkpt lat="44.45174" lon="5.14686">
        <ele>637.5</ele>
        <time>2025-12-07T08:17:20Z</time>
      </trkpt>
      <trkpt lat="44.4518" lon="5.14711">
        <ele>639.8</ele>
        <time>2025-12-07T08:17:40Z</time>
      </trkpt>
      <trkpt lat="44.45188" lon="5.14736">
        <ele>641.7</ele>
        <time>2025-12-07T08:18:00Z</time>
      </trkpt>
      <trkpt lat="44.4519" lon="5.14754">
        <ele>644.2</ele>
        <time>2025-12-07T08:18:20Z</time>
      </trkpt>
      <trkpt lat="44.45194" lon="5.14779">
        <ele>647.6</ele>
        <time>2025-12-07T08:18:40Z</time>
      </trkpt>
      <trkpt lat="44.45196" lon="5.14797">
        <ele>649.5</ele>
        <time>2025-12-07T08:19:01Z</time>
      </trkpt>
      <trkpt lat="44.45196" lon="5.14803">
        <ele>650.2</ele>
        <time>2025-12-07T08:19:40Z</time>
      </trkpt>
      <trkpt lat="44.45195" lon="5.14829">
        <ele>652</ele>
        <time>2025-12-07T08:20:00Z</time>
      </trkpt>
      <trkpt lat="44.45192" lon="5.14857">
        <ele>651.5</ele>
        <time>2025-12-07T08:20:20Z</time>
      </trkpt>
      <trkpt lat="44.45191" lon="5.14889">
        <ele>650.4</ele>
        <time>2025-12-07T08:20:40Z</time>
      </trkpt>
      <trkpt lat="44.45185" lon="5.1492">
        <ele>649.9</ele>
        <time>2025-12-07T08:21:00Z</time>
      </trkpt>
      <trkpt lat="44.45182" lon="5.14952">
        <ele>650.4</ele>
        <time>2025-12-07T08:21:20Z</time>
      </trkpt>
      <trkpt lat="44.45185" lon="5.14985">
        <ele>647.6</ele>
        <time>2025-12-07T08:21:40Z</time>
      </trkpt>
      <trkpt lat="44.45175" lon="5.15017">
        <ele>645.2</ele>
        <time>2025-12-07T08:22:00Z</time>
      </trkpt>
      <trkpt lat="44.45167" lon="5.1505">
        <ele>642.5</ele>
        <time>2025-12-07T08:22:20Z</time>
      </trkpt>
      <trkpt lat="44.45154" lon="5.15076">
        <ele>640.1</ele>
        <time>2025-12-07T08:22:41Z</time>
      </trkpt>
      <trkpt lat="44.45157" lon="5.15109">
        <ele>636.7</ele>
        <time>2025-12-07T08:23:01Z</time>
      </trkpt>
      <trkpt lat="44.45169" lon="5.15137">
        <ele>634</ele>
        <time>2025-12-07T08:23:21Z</time>
      </trkpt>
      <trkpt lat="44.45188" lon="5.15153">
        <ele>628.7</ele>
        <time>2025-12-07T08:23:41Z</time>
      </trkpt>
      <trkpt lat="44.45209" lon="5.15164">
        <ele>622.9</ele>
        <time>2025-12-07T08:24:01Z</time>
      </trkpt>
      <trkpt lat="44.45225" lon="5.1519">
        <ele>620.2</ele>
        <time>2025-12-07T08:24:21Z</time>
      </trkpt>
      <trkpt lat="44.45233" lon="5.15222">
        <ele>616.8</ele>
        <time>2025-12-07T08:24:41Z</time>
      </trkpt>
      <trkpt lat="44.45242" lon="5.15254">
        <ele>614.4</ele>
        <time>2025-12-07T08:25:01Z</time>
      </trkpt>
      <trkpt lat="44.45247" lon="5.1527">
        <ele>613.8</ele>
        <time>2025-12-07T08:25:21Z</time>
      </trkpt>
      <trkpt lat="44.45247" lon="5.15278">
        <ele>613.2</ele>
        <time>2025-12-07T08:25:41Z</time>
      </trkpt>
      <trkpt lat="44.4525" lon="5.15283">
        <ele>613.9</ele>
        <time>2025-12-07T08:27:25Z</time>
      </trkpt>
      <trkpt lat="44.45251" lon="5.15289">
        <ele>613.8</ele>
        <time>2025-12-07T08:28:57Z</time>
      </trkpt>
      <trkpt lat="44.4525" lon="5.15311">
        <ele>613.7</ele>
        <time>2025-12-07T08:29:17Z</time>
      </trkpt>
      <trkpt lat="44.45249" lon="5.15339">
        <ele>614.4</ele>
        <time>2025-12-07T08:29:38Z</time>
      </trkpt>
      <trkpt lat="44.45256" lon="5.15366">
        <ele>614.4</ele>
        <time>2025-12-07T08:29:58Z</time>
      </trkpt>
      <trkpt lat="44.45267" lon="5.15382">
        <ele>614.4</ele>
        <time>2025-12-07T08:30:18Z</time>
      </trkpt>
      <trkpt lat="44.45286" lon="5.154">
        <ele>615.3</ele>
        <time>2025-12-07T08:30:38Z</time>
      </trkpt>
      <trkpt lat="44.45304" lon="5.1542">
        <ele>616</ele>
        <time>2025-12-07T08:30:58Z</time>
      </trkpt>
      <trkpt lat="44.45316" lon="5.15445">
        <ele>617</ele>
        <time>2025-12-07T08:31:18Z</time>
      </trkpt>
      <trkpt lat="44.45321" lon="5.15469">
        <ele>618.6</ele>
        <time>2025-12-07T08:31:38Z</time>
      </trkpt>
      <trkpt lat="44.45323" lon="5.1548">
        <ele>619.7</ele>
        <time>2025-12-07T08:31:58Z</time>
      </trkpt>
      <trkpt lat="44.4533" lon="5.15501">
        <ele>620.8</ele>
        <time>2025-12-07T08:32:18Z</time>
      </trkpt>
      <trkpt lat="44.45334" lon="5.15523">
        <ele>624</ele>
        <time>2025-12-07T08:32:38Z</time>
      </trkpt>
      <trkpt lat="44.45328" lon="5.15543">
        <ele>627.4</ele>
        <time>2025-12-07T08:32:59Z</time>
      </trkpt>
      <trkpt lat="44.45339" lon="5.15561">
        <ele>629.8</ele>
        <time>2025-12-07T08:33:19Z</time>
      </trkpt>
      <trkpt lat="44.45353" lon="5.15568">
        <ele>633.9</ele>
        <time>2025-12-07T08:33:39Z</time>
      </trkpt>
      <trkpt lat="44.45368" lon="5.15576">
        <ele>637.5</ele>
        <time>2025-12-07T08:33:59Z</time>
      </trkpt>
      <trkpt lat="44.45361" lon="5.1559">
        <ele>638.9</ele>
        <time>2025-12-07T08:34:19Z</time>
      </trkpt>
      <trkpt lat="44.45348" lon="5.15601">
        <ele>639</ele>
        <time>2025-12-07T08:34:39Z</time>
      </trkpt>
      <trkpt lat="44.45342" lon="5.15621">
        <ele>643.1</ele>
        <time>2025-12-07T08:34:59Z</time>
      </trkpt>
      <trkpt lat="44.45348" lon="5.15643">
        <ele>647.9</ele>
        <time>2025-12-07T08:35:19Z</time>
      </trkpt>
      <trkpt lat="44.45342" lon="5.15665">
        <ele>652.6</ele>
        <time>2025-12-07T08:35:39Z</time>
      </trkpt>
      <trkpt lat="44.45334" lon="5.15683">
        <ele>656.3</ele>
        <time>2025-12-07T08:35:59Z</time>
      </trkpt>
      <trkpt lat="44.45326" lon="5.15697">
        <ele>658.6</ele>
        <time>2025-12-07T08:36:20Z</time>
      </trkpt>
      <trkpt lat="44.45315" lon="5.15706">
        <ele>659.7</ele>
        <time>2025-12-07T08:36:40Z</time>
      </trkpt>
      <trkpt lat="44.45301" lon="5.15713">
        <ele>659.4</ele>
        <time>2025-12-07T08:37:00Z</time>
      </trkpt>
      <trkpt lat="44.45286" lon="5.15722">
        <ele>658.6</ele>
        <time>2025-12-07T08:37:20Z</time>
      </trkpt>
      <trkpt lat="44.45272" lon="5.15734">
        <ele>660.2</ele>
        <time>2025-12-07T08:37:40Z</time>
      </trkpt>
      <trkpt lat="44.45259" lon="5.15745">
        <ele>659.5</ele>
        <time>2025-12-07T08:38:00Z</time>
      </trkpt>
      <trkpt lat="44.45244" lon="5.15753">
        <ele>660.7</ele>
        <time>2025-12-07T08:38:20Z</time>
      </trkpt>
      <trkpt lat="44.45231" lon="5.15762">
        <ele>661.4</ele>
        <time>2025-12-07T08:38:40Z</time>
      </trkpt>
      <trkpt lat="44.45216" lon="5.15767">
        <ele>662.3</ele>
        <time>2025-12-07T08:39:00Z</time>
      </trkpt>
      <trkpt lat="44.45201" lon="5.15768">
        <ele>663.7</ele>
        <time>2025-12-07T08:39:20Z</time>
      </trkpt>
      <trkpt lat="44.45184" lon="5.1577">
        <ele>670.4</ele>
        <time>2025-12-07T08:39:41Z</time>
      </trkpt>
      <trkpt lat="44.45167" lon="5.15775">
        <ele>677</ele>
        <time>2025-12-07T08:40:01Z</time>
      </trkpt>
      <trkpt lat="44.45147" lon="5.1578">
        <ele>680.3</ele>
        <time>2025-12-07T08:40:21Z</time>
      </trkpt>
      <trkpt lat="44.45128" lon="5.15785">
        <ele>681.4</ele>
        <time>2025-12-07T08:40:41Z</time>
      </trkpt>
      <trkpt lat="44.45114" lon="5.15794">
        <ele>684.7</ele>
        <time>2025-12-07T08:41:01Z</time>
      </trkpt>
      <trkpt lat="44.45111" lon="5.15799">
        <ele>691.8</ele>
        <time>2025-12-07T08:42:08Z</time>
      </trkpt>
      <trkpt lat="44.45107" lon="5.15803">
        <ele>692.1</ele>
        <time>2025-12-07T08:42:58Z</time>
      </trkpt>
      <trkpt lat="44.45097" lon="5.15816">
        <ele>694.1</ele>
        <time>2025-12-07T08:43:18Z</time>
      </trkpt>
      <trkpt lat="44.45083" lon="5.15837">
        <ele>695.4</ele>
        <time>2025-12-07T08:43:38Z</time>
      </trkpt>
      <trkpt lat="44.45067" lon="5.15855">
        <ele>696.5</ele>
        <time>2025-12-07T08:43:58Z</time>
      </trkpt>
      <trkpt lat="44.45052" lon="5.1587">
        <ele>697.3</ele>
        <time>2025-12-07T08:44:18Z</time>
      </trkpt>
      <trkpt lat="44.45039" lon="5.15882">
        <ele>698.5</ele>
        <time>2025-12-07T08:44:38Z</time>
      </trkpt>
      <trkpt lat="44.45029" lon="5.1589">
        <ele>700.8</ele>
        <time>2025-12-07T08:44:59Z</time>
      </trkpt>
      <trkpt lat="44.45011" lon="5.15888">
        <ele>704.7</ele>
        <time>2025-12-07T08:45:19Z</time>
      </trkpt>
      <trkpt lat="44.44991" lon="5.15887">
        <ele>707.7</ele>
        <time>2025-12-07T08:45:39Z</time>
      </trkpt>
      <trkpt lat="44.44976" lon="5.15904">
        <ele>711.1</ele>
        <time>2025-12-07T08:45:59Z</time>
      </trkpt>
      <trkpt lat="44.44963" lon="5.15922">
        <ele>713</ele>
        <time>2025-12-07T08:46:19Z</time>
      </trkpt>
      <trkpt lat="44.44947" lon="5.15937">
        <ele>714.5</ele>
        <time>2025-12-07T08:46:39Z</time>
      </trkpt>
      <trkpt lat="44.44933" lon="5.15958">
        <ele>718</ele>
        <time>2025-12-07T08:46:59Z</time>
      </trkpt>
      <trkpt lat="44.44924" lon="5.1598">
        <ele>723.6</ele>
        <time>2025-12-07T08:47:19Z</time>
      </trkpt>
      <trkpt lat="44.44915" lon="5.16001">
        <ele>728.1</ele>
        <time>2025-12-07T08:47:39Z</time>
      </trkpt>
      <trkpt lat="44.449" lon="5.16003">
        <ele>729.6</ele>
        <time>2025-12-07T08:47:59Z</time>
      </trkpt>
      <trkpt lat="44.44891" lon="5.16001">
        <ele>731.3</ele>
        <time>2025-12-07T08:48:20Z</time>
      </trkpt>
      <trkpt lat="44.44879" lon="5.15993">
        <ele>734.6</ele>
        <time>2025-12-07T08:48:40Z</time>
      </trkpt>
      <trkpt lat="44.44868" lon="5.15982">
        <ele>738.8</ele>
        <time>2025-12-07T08:49:00Z</time>
      </trkpt>
      <trkpt lat="44.44856" lon="5.15972">
        <ele>741.9</ele>
        <time>2025-12-07T08:49:20Z</time>
      </trkpt>
      <trkpt lat="44.44842" lon="5.15963">
        <ele>744.4</ele>
        <time>2025-12-07T08:49:40Z</time>
      </trkpt>
      <trkpt lat="44.44825" lon="5.15955">
        <ele>746.7</ele>
        <time>2025-12-07T08:50:00Z</time>
      </trkpt>
      <trkpt lat="44.4481" lon="5.15966">
        <ele>748</ele>
        <time>2025-12-07T08:50:20Z</time>
      </trkpt>
      <trkpt lat="44.44793" lon="5.15976">
        <ele>748.5</ele>
        <time>2025-12-07T08:50:40Z</time>
      </trkpt>
      <trkpt lat="44.44776" lon="5.15979">
        <ele>750.6</ele>
        <time>2025-12-07T08:51:00Z</time>
      </trkpt>
      <trkpt lat="44.44761" lon="5.15986">
        <ele>754.6</ele>
        <time>2025-12-07T08:51:20Z</time>
      </trkpt>
      <trkpt lat="44.44756" lon="5.16012">
        <ele>758.8</ele>
        <time>2025-12-07T08:51:41Z</time>
      </trkpt>
      <trkpt lat="44.44742" lon="5.1603">
        <ele>760.4</ele>
        <time>2025-12-07T08:52:01Z</time>
      </trkpt>
      <trkpt lat="44.4473" lon="5.16046">
        <ele>760.4</ele>
        <time>2025-12-07T08:52:21Z</time>
      </trkpt>
      <trkpt lat="44.44716" lon="5.16057">
        <ele>762.4</ele>
        <time>2025-12-07T08:52:41Z</time>
      </trkpt>
      <trkpt lat="44.44705" lon="5.1606">
        <ele>765.9</ele>
        <time>2025-12-07T08:53:01Z</time>
      </trkpt>
      <trkpt lat="44.447" lon="5.16059">
        <ele>771.3</ele>
        <time>2025-12-07T08:54:12Z</time>
      </trkpt>
      <trkpt lat="44.447" lon="5.16051">
        <ele>776.3</ele>
        <time>2025-12-07T08:58:18Z</time>
      </trkpt>
      <trkpt lat="44.44693" lon="5.16035">
        <ele>777.9</ele>
        <time>2025-12-07T08:58:38Z</time>
      </trkpt>
      <trkpt lat="44.44687" lon="5.16019">
        <ele>778.9</ele>
        <time>2025-12-07T08:58:58Z</time>
      </trkpt>
      <trkpt lat="44.4468" lon="5.16004">
        <ele>780.9</ele>
        <time>2025-12-07T08:59:18Z</time>
      </trkpt>
      <trkpt lat="44.4467" lon="5.15989">
        <ele>783.4</ele>
        <time>2025-12-07T08:59:38Z</time>
      </trkpt>
      <trkpt lat="44.4466" lon="5.15978">
        <ele>786.1</ele>
        <time>2025-12-07T08:59:58Z</time>
      </trkpt>
      <trkpt lat="44.44651" lon="5.15965">
        <ele>788.2</ele>
        <time>2025-12-07T09:00:19Z</time>
      </trkpt>
      <trkpt lat="44.44641" lon="5.15953">
        <ele>791.6</ele>
        <time>2025-12-07T09:00:39Z</time>
      </trkpt>
      <trkpt lat="44.4463" lon="5.15941">
        <ele>794</ele>
        <time>2025-12-07T09:00:59Z</time>
      </trkpt>
      <trkpt lat="44.4462" lon="5.1593">
        <ele>796.6</ele>
        <time>2025-12-07T09:01:19Z</time>
      </trkpt>
      <trkpt lat="44.44612" lon="5.15915">
        <ele>798.3</ele>
        <time>2025-12-07T09:01:39Z</time>
      </trkpt>
      <trkpt lat="44.44604" lon="5.15899">
        <ele>801.6</ele>
        <time>2025-12-07T09:01:59Z</time>
      </trkpt>
      <trkpt lat="44.44599" lon="5.15879">
        <ele>803.9</ele>
        <time>2025-12-07T09:02:19Z</time>
      </trkpt>
      <trkpt lat="44.44598" lon="5.15859">
        <ele>807.4</ele>
        <time>2025-12-07T09:02:39Z</time>
      </trkpt>
      <trkpt lat="44.44597" lon="5.1584">
        <ele>811</ele>
        <time>2025-12-07T09:02:59Z</time>
      </trkpt>
      <trkpt lat="44.44593" lon="5.15824">
        <ele>814.7</ele>
        <time>2025-12-07T09:03:19Z</time>
      </trkpt>
      <trkpt lat="44.44587" lon="5.15804">
        <ele>817.3</ele>
        <time>2025-12-07T09:03:40Z</time>
      </trkpt>
      <trkpt lat="44.44588" lon="5.15788">
        <ele>817.8</ele>
        <time>2025-12-07T09:04:00Z</time>
      </trkpt>
      <trkpt lat="44.44593" lon="5.15773">
        <ele>816.3</ele>
        <time>2025-12-07T09:04:20Z</time>
      </trkpt>
      <trkpt lat="44.44596" lon="5.15761">
        <ele>817.2</ele>
        <time>2025-12-07T09:04:40Z</time>
      </trkpt>
      <trkpt lat="44.44599" lon="5.15752">
        <ele>818.8</ele>
        <time>2025-12-07T09:05:00Z</time>
      </trkpt>
      <trkpt lat="44.44594" lon="5.15738">
        <ele>822.1</ele>
        <time>2025-12-07T09:05:20Z</time>
      </trkpt>
      <trkpt lat="44.44583" lon="5.15723">
        <ele>824.9</ele>
        <time>2025-12-07T09:05:40Z</time>
      </trkpt>
      <trkpt lat="44.4457" lon="5.15718">
        <ele>828.9</ele>
        <time>2025-12-07T09:06:00Z</time>
      </trkpt>
      <trkpt lat="44.44555" lon="5.15707">
        <ele>831.2</ele>
        <time>2025-12-07T09:06:20Z</time>
      </trkpt>
      <trkpt lat="44.44541" lon="5.15696">
        <ele>831.4</ele>
        <time>2025-12-07T09:06:40Z</time>
      </trkpt>
      <trkpt lat="44.44528" lon="5.15688">
        <ele>833.1</ele>
        <time>2025-12-07T09:07:01Z</time>
      </trkpt>
      <trkpt lat="44.44517" lon="5.15676">
        <ele>835.8</ele>
        <time>2025-12-07T09:07:21Z</time>
      </trkpt>
      <trkpt lat="44.44506" lon="5.15671">
        <ele>838.1</ele>
        <time>2025-12-07T09:07:41Z</time>
      </trkpt>
      <trkpt lat="44.44494" lon="5.15666">
        <ele>842.3</ele>
        <time>2025-12-07T09:08:01Z</time>
      </trkpt>
      <trkpt lat="44.44483" lon="5.15659">
        <ele>844.7</ele>
        <time>2025-12-07T09:08:21Z</time>
      </trkpt>
      <trkpt lat="44.44472" lon="5.15656">
        <ele>848</ele>
        <time>2025-12-07T09:08:41Z</time>
      </trkpt>
      <trkpt lat="44.44461" lon="5.1565">
        <ele>850.4</ele>
        <time>2025-12-07T09:09:01Z</time>
      </trkpt>
      <trkpt lat="44.44452" lon="5.15644">
        <ele>853.5</ele>
        <time>2025-12-07T09:09:21Z</time>
      </trkpt>
      <trkpt lat="44.44442" lon="5.15641">
        <ele>855.3</ele>
        <time>2025-12-07T09:09:41Z</time>
      </trkpt>
      <trkpt lat="44.44433" lon="5.15637">
        <ele>858.3</ele>
        <time>2025-12-07T09:10:01Z</time>
      </trkpt>
      <trkpt lat="44.44425" lon="5.1563">
        <ele>860.5</ele>
        <time>2025-12-07T09:10:22Z</time>
      </trkpt>
      <trkpt lat="44.44417" lon="5.15624">
        <ele>863.3</ele>
        <time>2025-12-07T09:10:42Z</time>
      </trkpt>
      <trkpt lat="44.4441" lon="5.15616">
        <ele>867.3</ele>
        <time>2025-12-07T09:11:02Z</time>
      </trkpt>
      <trkpt lat="44.44402" lon="5.15612">
        <ele>870.5</ele>
        <time>2025-12-07T09:11:22Z</time>
      </trkpt>
      <trkpt lat="44.44395" lon="5.15607">
        <ele>873.4</ele>
        <time>2025-12-07T09:11:42Z</time>
      </trkpt>
      <trkpt lat="44.44387" lon="5.156">
        <ele>874.4</ele>
        <time>2025-12-07T09:12:02Z</time>
      </trkpt>
      <trkpt lat="44.44384" lon="5.15593">
        <ele>878</ele>
        <time>2025-12-07T09:12:22Z</time>
      </trkpt>
      <trkpt lat="44.44377" lon="5.15584">
        <ele>881.2</ele>
        <time>2025-12-07T09:12:42Z</time>
      </trkpt>
      <trkpt lat="44.44371" lon="5.15576">
        <ele>886.5</ele>
        <time>2025-12-07T09:13:02Z</time>
      </trkpt>
      <trkpt lat="44.44364" lon="5.15571">
        <ele>893.5</ele>
        <time>2025-12-07T09:13:22Z</time>
      </trkpt>
      <trkpt lat="44.44357" lon="5.15567">
        <ele>898.3</ele>
        <time>2025-12-07T09:13:43Z</time>
      </trkpt>
      <trkpt lat="44.4435" lon="5.1556">
        <ele>902.4</ele>
        <time>2025-12-07T09:14:03Z</time>
      </trkpt>
      <trkpt lat="44.44344" lon="5.15555">
        <ele>906.1</ele>
        <time>2025-12-07T09:14:23Z</time>
      </trkpt>
      <trkpt lat="44.44336" lon="5.15544">
        <ele>909.9</ele>
        <time>2025-12-07T09:14:43Z</time>
      </trkpt>
      <trkpt lat="44.44327" lon="5.15536">
        <ele>913.5</ele>
        <time>2025-12-07T09:15:03Z</time>
      </trkpt>
      <trkpt lat="44.44318" lon="5.15528">
        <ele>916.6</ele>
        <time>2025-12-07T09:15:23Z</time>
      </trkpt>
      <trkpt lat="44.44308" lon="5.15515">
        <ele>920.6</ele>
        <time>2025-12-07T09:15:43Z</time>
      </trkpt>
      <trkpt lat="44.44297" lon="5.15499">
        <ele>922.8</ele>
        <time>2025-12-07T09:16:03Z</time>
      </trkpt>
      <trkpt lat="44.44286" lon="5.15486">
        <ele>923.8</ele>
        <time>2025-12-07T09:16:23Z</time>
      </trkpt>
      <trkpt lat="44.44278" lon="5.15472">
        <ele>923.9</ele>
        <time>2025-12-07T09:16:43Z</time>
      </trkpt>
      <trkpt lat="44.44267" lon="5.15456">
        <ele>925.1</ele>
        <time>2025-12-07T09:17:04Z</time>
      </trkpt>
      <trkpt lat="44.44257" lon="5.1544">
        <ele>927.8</ele>
        <time>2025-12-07T09:17:24Z</time>
      </trkpt>
      <trkpt lat="44.44248" lon="5.15427">
        <ele>929.7</ele>
        <time>2025-12-07T09:17:44Z</time>
      </trkpt>
      <trkpt lat="44.4424" lon="5.15409">
        <ele>929.7</ele>
        <time>2025-12-07T09:18:04Z</time>
      </trkpt>
      <trkpt lat="44.44232" lon="5.15394">
        <ele>930.8</ele>
        <time>2025-12-07T09:18:24Z</time>
      </trkpt>
      <trkpt lat="44.44225" lon="5.15387">
        <ele>931.8</ele>
        <time>2025-12-07T09:18:44Z</time>
      </trkpt>
      <trkpt lat="44.44225" lon="5.15387">
        <ele>931.7</ele>
        <time>2025-12-07T09:19:04Z</time>
      </trkpt>
      <trkpt lat="44.4422" lon="5.15378">
        <ele>933.3</ele>
        <time>2025-12-07T09:19:24Z</time>
      </trkpt>
      <trkpt lat="44.44215" lon="5.15368">
        <ele>933.8</ele>
        <time>2025-12-07T09:19:44Z</time>
      </trkpt>
      <trkpt lat="44.44215" lon="5.15368">
        <ele>934.1</ele>
        <time>2025-12-07T09:20:04Z</time>
      </trkpt>
      <trkpt lat="44.44215" lon="5.15368">
        <ele>934.1</ele>
        <time>2025-12-07T09:20:25Z</time>
      </trkpt>
      <trkpt lat="44.44215" lon="5.15368">
        <ele>934.3</ele>
        <time>2025-12-07T09:20:45Z</time>
      </trkpt>
      <trkpt lat="44.44215" lon="5.15368">
        <ele>934.4</ele>
        <time>2025-12-07T09:21:05Z</time>
      </trkpt>
      <trkpt lat="44.44215" lon="5.15367">
        <ele>934.6</ele>
        <time>2025-12-07T09:21:25Z</time>
      </trkpt>
      <trkpt lat="44.44215" lon="5.15367">
        <ele>935.2</ele>
        <time>2025-12-07T09:21:45Z</time>
      </trkpt>
      <trkpt lat="44.44207" lon="5.15352">
        <ele>935.1</ele>
        <time>2025-12-07T09:22:05Z</time>
      </trkpt>
      <trkpt lat="44.44196" lon="5.15333">
        <ele>933.8</ele>
        <time>2025-12-07T09:22:25Z</time>
      </trkpt>
      <trkpt lat="44.44186" lon="5.15315">
        <ele>934.1</ele>
        <time>2025-12-07T09:22:45Z</time>
      </trkpt>
      <trkpt lat="44.44176" lon="5.15298">
        <ele>935.4</ele>
        <time>2025-12-07T09:23:05Z</time>
      </trkpt>
      <trkpt lat="44.44165" lon="5.15282">
        <ele>936.1</ele>
        <time>2025-12-07T09:23:25Z</time>
      </trkpt>
      <trkpt lat="44.44155" lon="5.15268">
        <ele>936</ele>
        <time>2025-12-07T09:23:46Z</time>
      </trkpt>
      <trkpt lat="44.44144" lon="5.15251">
        <ele>936.6</ele>
        <time>2025-12-07T09:24:06Z</time>
      </trkpt>
      <trkpt lat="44.44134" lon="5.15235">
        <ele>937.2</ele>
        <time>2025-12-07T09:24:26Z</time>
      </trkpt>
      <trkpt lat="44.44123" lon="5.15219">
        <ele>938.4</ele>
        <time>2025-12-07T09:24:46Z</time>
      </trkpt>
      <trkpt lat="44.44113" lon="5.15203">
        <ele>940.2</ele>
        <time>2025-12-07T09:25:06Z</time>
      </trkpt>
      <trkpt lat="44.44106" lon="5.15189">
        <ele>941.1</ele>
        <time>2025-12-07T09:25:26Z</time>
      </trkpt>
      <trkpt lat="44.44093" lon="5.15175">
        <ele>943.4</ele>
        <time>2025-12-07T09:25:46Z</time>
      </trkpt>
      <trkpt lat="44.44086" lon="5.15165">
        <ele>944</ele>
        <time>2025-12-07T09:26:06Z</time>
      </trkpt>
      <trkpt lat="44.44079" lon="5.15153">
        <ele>944.8</ele>
        <time>2025-12-07T09:26:26Z</time>
      </trkpt>
      <trkpt lat="44.44071" lon="5.15138">
        <ele>945.7</ele>
        <time>2025-12-07T09:26:46Z</time>
      </trkpt>
      <trkpt lat="44.44061" lon="5.1512">
        <ele>946</ele>
        <time>2025-12-07T09:27:07Z</time>
      </trkpt>
      <trkpt lat="44.44052" lon="5.15103">
        <ele>945.2</ele>
        <time>2025-12-07T09:27:27Z</time>
      </trkpt>
      <trkpt lat="44.44043" lon="5.15087">
        <ele>946.9</ele>
        <time>2025-12-07T09:27:47Z</time>
      </trkpt>
      <trkpt lat="44.44029" lon="5.15077">
        <ele>948.7</ele>
        <time>2025-12-07T09:28:07Z</time>
      </trkpt>
      <trkpt lat="44.44019" lon="5.1506">
        <ele>950</ele>
        <time>2025-12-07T09:28:27Z</time>
      </trkpt>
      <trkpt lat="44.44008" lon="5.15047">
        <ele>952.7</ele>
        <time>2025-12-07T09:28:47Z</time>
      </trkpt>
      <trkpt lat="44.43997" lon="5.15039">
        <ele>954.4</ele>
        <time>2025-12-07T09:29:07Z</time>
      </trkpt>
      <trkpt lat="44.43986" lon="5.15031">
        <ele>956.5</ele>
        <time>2025-12-07T09:29:27Z</time>
      </trkpt>
      <trkpt lat="44.43974" lon="5.15019">
        <ele>958.2</ele>
        <time>2025-12-07T09:29:47Z</time>
      </trkpt>
      <trkpt lat="44.43963" lon="5.15008">
        <ele>959.9</ele>
        <time>2025-12-07T09:30:07Z</time>
      </trkpt>
      <trkpt lat="44.43953" lon="5.14996">
        <ele>960.6</ele>
        <time>2025-12-07T09:30:28Z</time>
      </trkpt>
      <trkpt lat="44.43939" lon="5.14981">
        <ele>962.8</ele>
        <time>2025-12-07T09:30:48Z</time>
      </trkpt>
      <trkpt lat="44.43927" lon="5.14962">
        <ele>962.8</ele>
        <time>2025-12-07T09:31:08Z</time>
      </trkpt>
      <trkpt lat="44.43918" lon="5.14949">
        <ele>963.6</ele>
        <time>2025-12-07T09:31:28Z</time>
      </trkpt>
      <trkpt lat="44.43906" lon="5.14933">
        <ele>963.5</ele>
        <time>2025-12-07T09:31:48Z</time>
      </trkpt>
      <trkpt lat="44.43896" lon="5.14929">
        <ele>964.8</ele>
        <time>2025-12-07T09:32:08Z</time>
      </trkpt>
      <trkpt lat="44.43891" lon="5.14924">
        <ele>965.4</ele>
        <time>2025-12-07T09:32:28Z</time>
      </trkpt>
      <trkpt lat="44.43877" lon="5.14915">
        <ele>965.5</ele>
        <time>2025-12-07T09:32:48Z</time>
      </trkpt>
      <trkpt lat="44.43868" lon="5.14902">
        <ele>963.8</ele>
        <time>2025-12-07T09:33:08Z</time>
      </trkpt>
      <trkpt lat="44.43867" lon="5.14885">
        <ele>959.8</ele>
        <time>2025-12-07T09:33:28Z</time>
      </trkpt>
      <trkpt lat="44.43852" lon="5.14868">
        <ele>957.2</ele>
        <time>2025-12-07T09:33:49Z</time>
      </trkpt>
      <trkpt lat="44.43834" lon="5.14858">
        <ele>955.8</ele>
        <time>2025-12-07T09:34:09Z</time>
      </trkpt>
      <trkpt lat="44.43821" lon="5.14861">
        <ele>957.3</ele>
        <time>2025-12-07T09:34:29Z</time>
      </trkpt>
      <trkpt lat="44.43806" lon="5.14849">
        <ele>956.8</ele>
        <time>2025-12-07T09:34:49Z</time>
      </trkpt>
      <trkpt lat="44.43807" lon="5.14834">
        <ele>956.8</ele>
        <time>2025-12-07T09:35:09Z</time>
      </trkpt>
      <trkpt lat="44.43806" lon="5.14812">
        <ele>957.4</ele>
        <time>2025-12-07T09:35:29Z</time>
      </trkpt>
      <trkpt lat="44.43802" lon="5.14791">
        <ele>958</ele>
        <time>2025-12-07T09:35:49Z</time>
      </trkpt>
      <trkpt lat="44.43798" lon="5.14773">
        <ele>965.2</ele>
        <time>2025-12-07T09:36:09Z</time>
      </trkpt>
      <trkpt lat="44.43792" lon="5.14763">
        <ele>965.2</ele>
        <time>2025-12-07T09:36:29Z</time>
      </trkpt>
      <trkpt lat="44.43783" lon="5.1475">
        <ele>969.2</ele>
        <time>2025-12-07T09:36:49Z</time>
      </trkpt>
      <trkpt lat="44.43781" lon="5.1474">
        <ele>972.1</ele>
        <time>2025-12-07T09:37:10Z</time>
      </trkpt>
      <trkpt lat="44.43775" lon="5.14733">
        <ele>973.8</ele>
        <time>2025-12-07T09:37:30Z</time>
      </trkpt>
      <trkpt lat="44.43771" lon="5.14727">
        <ele>974.8</ele>
        <time>2025-12-07T09:37:50Z</time>
      </trkpt>
      <trkpt lat="44.43767" lon="5.14714">
        <ele>977.3</ele>
        <time>2025-12-07T09:38:10Z</time>
      </trkpt>
      <trkpt lat="44.43766" lon="5.14703">
        <ele>979.4</ele>
        <time>2025-12-07T09:38:30Z</time>
      </trkpt>
      <trkpt lat="44.4376" lon="5.14697">
        <ele>983.1</ele>
        <time>2025-12-07T09:38:50Z</time>
      </trkpt>
      <trkpt lat="44.43754" lon="5.14704">
        <ele>984.5</ele>
        <time>2025-12-07T09:39:10Z</time>
      </trkpt>
      <trkpt lat="44.43747" lon="5.14715">
        <ele>987.5</ele>
        <time>2025-12-07T09:39:30Z</time>
      </trkpt>
      <trkpt lat="44.43741" lon="5.14722">
        <ele>990.6</ele>
        <time>2025-12-07T09:39:50Z</time>
      </trkpt>
      <trkpt lat="44.43735" lon="5.14733">
        <ele>990.3</ele>
        <time>2025-12-07T09:40:10Z</time>
      </trkpt>
      <trkpt lat="44.43732" lon="5.14732">
        <ele>993.4</ele>
        <time>2025-12-07T09:40:31Z</time>
      </trkpt>
      <trkpt lat="44.43733" lon="5.14727">
        <ele>996.9</ele>
        <time>2025-12-07T09:40:51Z</time>
      </trkpt>
      <trkpt lat="44.43731" lon="5.14724">
        <ele>999.8</ele>
        <time>2025-12-07T09:41:11Z</time>
      </trkpt>
      <trkpt lat="44.43726" lon="5.14727">
        <ele>1003</ele>
        <time>2025-12-07T09:41:31Z</time>
      </trkpt>
      <trkpt lat="44.43726" lon="5.14727">
        <ele>1003.4</ele>
        <time>2025-12-07T09:41:51Z</time>
      </trkpt>
      <trkpt lat="44.43725" lon="5.14727">
        <ele>1004</ele>
        <time>2025-12-07T09:42:11Z</time>
      </trkpt>
      <trkpt lat="44.43726" lon="5.1472">
        <ele>1006.5</ele>
        <time>2025-12-07T09:42:31Z</time>
      </trkpt>
      <trkpt lat="44.43723" lon="5.14719">
        <ele>1008.8</ele>
        <time>2025-12-07T09:42:51Z</time>
      </trkpt>
      <trkpt lat="44.43724" lon="5.1471">
        <ele>1011</ele>
        <time>2025-12-07T09:43:11Z</time>
      </trkpt>
      <trkpt lat="44.4373" lon="5.14699">
        <ele>1013.2</ele>
        <time>2025-12-07T09:43:31Z</time>
      </trkpt>
      <trkpt lat="44.43735" lon="5.14685">
        <ele>1015.9</ele>
        <time>2025-12-07T09:43:52Z</time>
      </trkpt>
      <trkpt lat="44.43726" lon="5.14691">
        <ele>1019.8</ele>
        <time>2025-12-07T09:44:12Z</time>
      </trkpt>
      <trkpt lat="44.43718" lon="5.14696">
        <ele>1022</ele>
        <time>2025-12-07T09:44:32Z</time>
      </trkpt>
      <trkpt lat="44.43719" lon="5.14687">
        <ele>1025</ele>
        <time>2025-12-07T09:44:52Z</time>
      </trkpt>
      <trkpt lat="44.43721" lon="5.14679">
        <ele>1026.2</ele>
        <time>2025-12-07T09:45:12Z</time>
      </trkpt>
      <trkpt lat="44.43718" lon="5.14673">
        <ele>1028.9</ele>
        <time>2025-12-07T09:45:32Z</time>
      </trkpt>
      <trkpt lat="44.4372" lon="5.14667">
        <ele>1030.1</ele>
        <time>2025-12-07T09:45:52Z</time>
      </trkpt>
      <trkpt lat="44.43719" lon="5.1466">
        <ele>1032.2</ele>
        <time>2025-12-07T09:46:12Z</time>
      </trkpt>
      <trkpt lat="44.43719" lon="5.14648">
        <ele>1035.9</ele>
        <time>2025-12-07T09:46:32Z</time>
      </trkpt>
      <trkpt lat="44.43718" lon="5.14644">
        <ele>1038.3</ele>
        <time>2025-12-07T09:46:52Z</time>
      </trkpt>
      <trkpt lat="44.4371" lon="5.14648">
        <ele>1041.8</ele>
        <time>2025-12-07T09:47:13Z</time>
      </trkpt>
      <trkpt lat="44.43702" lon="5.14651">
        <ele>1045.5</ele>
        <time>2025-12-07T09:47:33Z</time>
      </trkpt>
      <trkpt lat="44.43705" lon="5.1464">
        <ele>1048.4</ele>
        <time>2025-12-07T09:47:53Z</time>
      </trkpt>
      <trkpt lat="44.43707" lon="5.14631">
        <ele>1050.1</ele>
        <time>2025-12-07T09:48:13Z</time>
      </trkpt>
      <trkpt lat="44.43705" lon="5.14624">
        <ele>1053.7</ele>
        <time>2025-12-07T09:48:33Z</time>
      </trkpt>
      <trkpt lat="44.43706" lon="5.14614">
        <ele>1056.1</ele>
        <time>2025-12-07T09:48:53Z</time>
      </trkpt>
      <trkpt lat="44.43704" lon="5.14604">
        <ele>1059</ele>
        <time>2025-12-07T09:49:13Z</time>
      </trkpt>
      <trkpt lat="44.43699" lon="5.14599">
        <ele>1062.1</ele>
        <time>2025-12-07T09:49:33Z</time>
      </trkpt>
      <trkpt lat="44.43691" lon="5.14601">
        <ele>1065.6</ele>
        <time>2025-12-07T09:49:53Z</time>
      </trkpt>
      <trkpt lat="44.43688" lon="5.146">
        <ele>1066.6</ele>
        <time>2025-12-07T09:50:13Z</time>
      </trkpt>
      <trkpt lat="44.43688" lon="5.14599">
        <ele>1066.7</ele>
        <time>2025-12-07T09:50:34Z</time>
      </trkpt>
      <trkpt lat="44.43688" lon="5.146">
        <ele>1067.2</ele>
        <time>2025-12-07T09:50:54Z</time>
      </trkpt>
      <trkpt lat="44.43688" lon="5.146">
        <ele>1067.4</ele>
        <time>2025-12-07T09:51:14Z</time>
      </trkpt>
      <trkpt lat="44.43686" lon="5.146">
        <ele>1068</ele>
        <time>2025-12-07T09:51:34Z</time>
      </trkpt>
      <trkpt lat="44.43684" lon="5.14603">
        <ele>1068.1</ele>
        <time>2025-12-07T09:51:54Z</time>
      </trkpt>
      <trkpt lat="44.43684" lon="5.14603">
        <ele>1068.1</ele>
        <time>2025-12-07T09:52:14Z</time>
      </trkpt>
      <trkpt lat="44.43684" lon="5.14604">
        <ele>1068.2</ele>
        <time>2025-12-07T09:52:34Z</time>
      </trkpt>
      <trkpt lat="44.43684" lon="5.14604">
        <ele>1068.6</ele>
        <time>2025-12-07T09:52:54Z</time>
      </trkpt>
      <trkpt lat="44.43682" lon="5.14603">
        <ele>1068.8</ele>
        <time>2025-12-07T09:53:14Z</time>
      </trkpt>
      <trkpt lat="44.43682" lon="5.14603">
        <ele>1069.1</ele>
        <time>2025-12-07T09:53:34Z</time>
      </trkpt>
      <trkpt lat="44.43681" lon="5.14603">
        <ele>1069.3</ele>
        <time>2025-12-07T09:53:55Z</time>
      </trkpt>
      <trkpt lat="44.43681" lon="5.14603">
        <ele>1069.4</ele>
        <time>2025-12-07T09:54:15Z</time>
      </trkpt>
      <trkpt lat="44.43666" lon="5.14599">
        <ele>1070.8</ele>
        <time>2025-12-07T09:54:35Z</time>
      </trkpt>
      <trkpt lat="44.43647" lon="5.14595">
        <ele>1072.5</ele>
        <time>2025-12-07T09:54:55Z</time>
      </trkpt>
      <trkpt lat="44.43627" lon="5.14592">
        <ele>1074.5</ele>
        <time>2025-12-07T09:55:15Z</time>
      </trkpt>
      <trkpt lat="44.43608" lon="5.1459">
        <ele>1075.5</ele>
        <time>2025-12-07T09:55:35Z</time>
      </trkpt>
      <trkpt lat="44.43588" lon="5.14587">
        <ele>1076.2</ele>
        <time>2025-12-07T09:55:55Z</time>
      </trkpt>
      <trkpt lat="44.43567" lon="5.14585">
        <ele>1077.5</ele>
        <time>2025-12-07T09:56:15Z</time>
      </trkpt>
      <trkpt lat="44.43546" lon="5.1458">
        <ele>1078.6</ele>
        <time>2025-12-07T09:56:35Z</time>
      </trkpt>
      <trkpt lat="44.43525" lon="5.14578">
        <ele>1079.6</ele>
        <time>2025-12-07T09:56:55Z</time>
      </trkpt>
      <trkpt lat="44.43505" lon="5.14576">
        <ele>1081.3</ele>
        <time>2025-12-07T09:57:16Z</time>
      </trkpt>
      <trkpt lat="44.43486" lon="5.14572">
        <ele>1083.8</ele>
        <time>2025-12-07T09:57:36Z</time>
      </trkpt>
      <trkpt lat="44.43467" lon="5.14567">
        <ele>1086.2</ele>
        <time>2025-12-07T09:57:56Z</time>
      </trkpt>
      <trkpt lat="44.4345" lon="5.14561">
        <ele>1088.2</ele>
        <time>2025-12-07T09:58:16Z</time>
      </trkpt>
      <trkpt lat="44.43433" lon="5.14546">
        <ele>1088.6</ele>
        <time>2025-12-07T09:58:36Z</time>
      </trkpt>
      <trkpt lat="44.43415" lon="5.14528">
        <ele>1088.8</ele>
        <time>2025-12-07T09:58:56Z</time>
      </trkpt>
      <trkpt lat="44.43399" lon="5.14511">
        <ele>1088.5</ele>
        <time>2025-12-07T09:59:16Z</time>
      </trkpt>
      <trkpt lat="44.43384" lon="5.14498">
        <ele>1088.2</ele>
        <time>2025-12-07T09:59:36Z</time>
      </trkpt>
      <trkpt lat="44.43366" lon="5.1448">
        <ele>1087.7</ele>
        <time>2025-12-07T09:59:56Z</time>
      </trkpt>
      <trkpt lat="44.43349" lon="5.14461">
        <ele>1087</ele>
        <time>2025-12-07T10:00:16Z</time>
      </trkpt>
      <trkpt lat="44.43334" lon="5.14438">
        <ele>1087</ele>
        <time>2025-12-07T10:00:37Z</time>
      </trkpt>
      <trkpt lat="44.43318" lon="5.14415">
        <ele>1086.4</ele>
        <time>2025-12-07T10:00:57Z</time>
      </trkpt>
      <trkpt lat="44.43302" lon="5.14394">
        <ele>1085.6</ele>
        <time>2025-12-07T10:01:17Z</time>
      </trkpt>
      <trkpt lat="44.43286" lon="5.14371">
        <ele>1084.1</ele>
        <time>2025-12-07T10:01:37Z</time>
      </trkpt>
      <trkpt lat="44.4327" lon="5.1435">
        <ele>1082.4</ele>
        <time>2025-12-07T10:01:57Z</time>
      </trkpt>
      <trkpt lat="44.43254" lon="5.14329">
        <ele>1079.1</ele>
        <time>2025-12-07T10:02:17Z</time>
      </trkpt>
      <trkpt lat="44.4324" lon="5.14309">
        <ele>1076.3</ele>
        <time>2025-12-07T10:02:37Z</time>
      </trkpt>
      <trkpt lat="44.43221" lon="5.14293">
        <ele>1072.8</ele>
        <time>2025-12-07T10:02:57Z</time>
      </trkpt>
      <trkpt lat="44.43201" lon="5.14281">
        <ele>1069.2</ele>
        <time>2025-12-07T10:03:17Z</time>
      </trkpt>
      <trkpt lat="44.43181" lon="5.14272">
        <ele>1067.5</ele>
        <time>2025-12-07T10:03:37Z</time>
      </trkpt>
      <trkpt lat="44.43166" lon="5.14261">
        <ele>1067.8</ele>
        <time>2025-12-07T10:03:58Z</time>
      </trkpt>
      <trkpt lat="44.43151" lon="5.14252">
        <ele>1070.1</ele>
        <time>2025-12-07T10:04:18Z</time>
      </trkpt>
      <trkpt lat="44.43137" lon="5.14244">
        <ele>1073.2</ele>
        <time>2025-12-07T10:04:38Z</time>
      </trkpt>
      <trkpt lat="44.43124" lon="5.1424">
        <ele>1075.6</ele>
        <time>2025-12-07T10:04:58Z</time>
      </trkpt>
      <trkpt lat="44.43112" lon="5.14234">
        <ele>1079</ele>
        <time>2025-12-07T10:05:18Z</time>
      </trkpt>
      <trkpt lat="44.43102" lon="5.14228">
        <ele>1081.4</ele>
        <time>2025-12-07T10:05:38Z</time>
      </trkpt>
      <trkpt lat="44.43091" lon="5.14221">
        <ele>1084.5</ele>
        <time>2025-12-07T10:05:58Z</time>
      </trkpt>
      <trkpt lat="44.43081" lon="5.14212">
        <ele>1087.3</ele>
        <time>2025-12-07T10:06:18Z</time>
      </trkpt>
      <trkpt lat="44.43071" lon="5.14201">
        <ele>1089.2</ele>
        <time>2025-12-07T10:06:38Z</time>
      </trkpt>
      <trkpt lat="44.43063" lon="5.1419">
        <ele>1091.5</ele>
        <time>2025-12-07T10:06:58Z</time>
      </trkpt>
      <trkpt lat="44.43054" lon="5.14185">
        <ele>1094.9</ele>
        <time>2025-12-07T10:07:19Z</time>
      </trkpt>
      <trkpt lat="44.43045" lon="5.14177">
        <ele>1097.9</ele>
        <time>2025-12-07T10:07:39Z</time>
      </trkpt>
      <trkpt lat="44.43035" lon="5.14167">
        <ele>1101</ele>
        <time>2025-12-07T10:07:59Z</time>
      </trkpt>
      <trkpt lat="44.43025" lon="5.14161">
        <ele>1104.7</ele>
        <time>2025-12-07T10:08:19Z</time>
      </trkpt>
      <trkpt lat="44.43016" lon="5.14156">
        <ele>1107.9</ele>
        <time>2025-12-07T10:08:39Z</time>
      </trkpt>
      <trkpt lat="44.43008" lon="5.14145">
        <ele>1110.4</ele>
        <time>2025-12-07T10:08:59Z</time>
      </trkpt>
      <trkpt lat="44.43" lon="5.14135">
        <ele>1113.1</ele>
        <time>2025-12-07T10:09:19Z</time>
      </trkpt>
      <trkpt lat="44.42992" lon="5.14127">
        <ele>1116.7</ele>
        <time>2025-12-07T10:09:39Z</time>
      </trkpt>
      <trkpt lat="44.42984" lon="5.1412">
        <ele>1120.4</ele>
        <time>2025-12-07T10:09:59Z</time>
      </trkpt>
      <trkpt lat="44.42977" lon="5.14112">
        <ele>1123.5</ele>
        <time>2025-12-07T10:10:19Z</time>
      </trkpt>
      <trkpt lat="44.4297" lon="5.14102">
        <ele>1125.6</ele>
        <time>2025-12-07T10:10:40Z</time>
      </trkpt>
      <trkpt lat="44.42963" lon="5.14091">
        <ele>1128.3</ele>
        <time>2025-12-07T10:11:00Z</time>
      </trkpt>
      <trkpt lat="44.42956" lon="5.14082">
        <ele>1131.2</ele>
        <time>2025-12-07T10:11:20Z</time>
      </trkpt>
      <trkpt lat="44.42948" lon="5.14074">
        <ele>1134.4</ele>
        <time>2025-12-07T10:11:40Z</time>
      </trkpt>
      <trkpt lat="44.4294" lon="5.14068">
        <ele>1137.8</ele>
        <time>2025-12-07T10:12:00Z</time>
      </trkpt>
      <trkpt lat="44.42932" lon="5.14065">
        <ele>1141.1</ele>
        <time>2025-12-07T10:12:20Z</time>
      </trkpt>
      <trkpt lat="44.42925" lon="5.14064">
        <ele>1144.4</ele>
        <time>2025-12-07T10:12:40Z</time>
      </trkpt>
      <trkpt lat="44.42924" lon="5.14064">
        <ele>1145.6</ele>
        <time>2025-12-07T10:13:00Z</time>
      </trkpt>
      <trkpt lat="44.42914" lon="5.14065">
        <ele>1149</ele>
        <time>2025-12-07T10:13:20Z</time>
      </trkpt>
      <trkpt lat="44.42903" lon="5.14066">
        <ele>1152.6</ele>
        <time>2025-12-07T10:13:40Z</time>
      </trkpt>
      <trkpt lat="44.42892" lon="5.14067">
        <ele>1155.6</ele>
        <time>2025-12-07T10:14:01Z</time>
      </trkpt>
      <trkpt lat="44.42882" lon="5.14066">
        <ele>1158.5</ele>
        <time>2025-12-07T10:14:21Z</time>
      </trkpt>
      <trkpt lat="44.42872" lon="5.14069">
        <ele>1160.9</ele>
        <time>2025-12-07T10:14:41Z</time>
      </trkpt>
      <trkpt lat="44.42863" lon="5.14071">
        <ele>1163.4</ele>
        <time>2025-12-07T10:15:01Z</time>
      </trkpt>
      <trkpt lat="44.42854" lon="5.14076">
        <ele>1165.5</ele>
        <time>2025-12-07T10:15:21Z</time>
      </trkpt>
      <trkpt lat="44.42845" lon="5.14082">
        <ele>1168.6</ele>
        <time>2025-12-07T10:15:41Z</time>
      </trkpt>
      <trkpt lat="44.42838" lon="5.14094">
        <ele>1170.8</ele>
        <time>2025-12-07T10:16:01Z</time>
      </trkpt>
      <trkpt lat="44.4283" lon="5.14109">
        <ele>1173.3</ele>
        <time>2025-12-07T10:16:21Z</time>
      </trkpt>
      <trkpt lat="44.42822" lon="5.14128">
        <ele>1175.2</ele>
        <time>2025-12-07T10:16:41Z</time>
      </trkpt>
      <trkpt lat="44.42812" lon="5.14143">
        <ele>1177.2</ele>
        <time>2025-12-07T10:17:01Z</time>
      </trkpt>
      <trkpt lat="44.42802" lon="5.14154">
        <ele>1179.7</ele>
        <time>2025-12-07T10:17:22Z</time>
      </trkpt>
      <trkpt lat="44.42791" lon="5.14163">
        <ele>1182.3</ele>
        <time>2025-12-07T10:17:42Z</time>
      </trkpt>
      <trkpt lat="44.42786" lon="5.14167">
        <ele>1183.8</ele>
        <time>2025-12-07T10:18:02Z</time>
      </trkpt>
      <trkpt lat="44.42785" lon="5.14168">
        <ele>1185.1</ele>
        <time>2025-12-07T10:18:22Z</time>
      </trkpt>
      <trkpt lat="44.42784" lon="5.14167">
        <ele>1185.3</ele>
        <time>2025-12-07T10:18:42Z</time>
      </trkpt>
      <trkpt lat="44.42783" lon="5.14166">
        <ele>1186</ele>
        <time>2025-12-07T10:19:02Z</time>
      </trkpt>
      <trkpt lat="44.42783" lon="5.14165">
        <ele>1186.6</ele>
        <time>2025-12-07T10:19:22Z</time>
      </trkpt>
      <trkpt lat="44.42783" lon="5.14165">
        <ele>1187.2</ele>
        <time>2025-12-07T10:19:42Z</time>
      </trkpt>
      <trkpt lat="44.42782" lon="5.14165">
        <ele>1187.6</ele>
        <time>2025-12-07T10:20:02Z</time>
      </trkpt>
      <trkpt lat="44.42773" lon="5.14155">
        <ele>1190</ele>
        <time>2025-12-07T10:20:22Z</time>
      </trkpt>
      <trkpt lat="44.42762" lon="5.14148">
        <ele>1192.7</ele>
        <time>2025-12-07T10:20:43Z</time>
      </trkpt>
      <trkpt lat="44.42751" lon="5.14139">
        <ele>1196.1</ele>
        <time>2025-12-07T10:21:03Z</time>
      </trkpt>
      <trkpt lat="44.42741" lon="5.14134">
        <ele>1198.9</ele>
        <time>2025-12-07T10:21:23Z</time>
      </trkpt>
      <trkpt lat="44.42731" lon="5.14128">
        <ele>1202.3</ele>
        <time>2025-12-07T10:21:43Z</time>
      </trkpt>
      <trkpt lat="44.42722" lon="5.14132">
        <ele>1203.5</ele>
        <time>2025-12-07T10:22:03Z</time>
      </trkpt>
      <trkpt lat="44.42712" lon="5.14131">
        <ele>1204.6</ele>
        <time>2025-12-07T10:22:23Z</time>
      </trkpt>
      <trkpt lat="44.42701" lon="5.14134">
        <ele>1206.1</ele>
        <time>2025-12-07T10:22:43Z</time>
      </trkpt>
      <trkpt lat="44.42687" lon="5.14139">
        <ele>1208.6</ele>
        <time>2025-12-07T10:23:03Z</time>
      </trkpt>
      <trkpt lat="44.42673" lon="5.14144">
        <ele>1209.5</ele>
        <time>2025-12-07T10:23:23Z</time>
      </trkpt>
      <trkpt lat="44.42671" lon="5.14146">
        <ele>1209.9</ele>
        <time>2025-12-07T10:23:43Z</time>
      </trkpt>
      <trkpt lat="44.4267" lon="5.14147">
        <ele>1210.1</ele>
        <time>2025-12-07T10:24:04Z</time>
      </trkpt>
      <trkpt lat="44.42666" lon="5.14151">
        <ele>1209.8</ele>
        <time>2025-12-07T10:24:24Z</time>
      </trkpt>
      <trkpt lat="44.42655" lon="5.14156">
        <ele>1206</ele>
        <time>2025-12-07T10:24:44Z</time>
      </trkpt>
      <trkpt lat="44.42646" lon="5.14166">
        <ele>1201.7</ele>
        <time>2025-12-07T10:25:04Z</time>
      </trkpt>
      <trkpt lat="44.42633" lon="5.1418">
        <ele>1197.7</ele>
        <time>2025-12-07T10:25:24Z</time>
      </trkpt>
      <trkpt lat="44.42615" lon="5.14195">
        <ele>1193</ele>
        <time>2025-12-07T10:25:44Z</time>
      </trkpt>
      <trkpt lat="44.42601" lon="5.14201">
        <ele>1188.8</ele>
        <time>2025-12-07T10:26:04Z</time>
      </trkpt>
      <trkpt lat="44.42592" lon="5.1421">
        <ele>1184.7</ele>
        <time>2025-12-07T10:26:24Z</time>
      </trkpt>
      <trkpt lat="44.42582" lon="5.14218">
        <ele>1180.6</ele>
        <time>2025-12-07T10:26:44Z</time>
      </trkpt>
      <trkpt lat="44.4257" lon="5.14218">
        <ele>1177.5</ele>
        <time>2025-12-07T10:27:04Z</time>
      </trkpt>
      <trkpt lat="44.42559" lon="5.14225">
        <ele>1171.7</ele>
        <time>2025-12-07T10:27:25Z</time>
      </trkpt>
      <trkpt lat="44.42542" lon="5.14247">
        <ele>1169.6</ele>
        <time>2025-12-07T10:27:45Z</time>
      </trkpt>
      <trkpt lat="44.42535" lon="5.14274">
        <ele>1169.8</ele>
        <time>2025-12-07T10:28:05Z</time>
      </trkpt>
      <trkpt lat="44.4253" lon="5.14299">
        <ele>1175.2</ele>
        <time>2025-12-07T10:28:25Z</time>
      </trkpt>
      <trkpt lat="44.42524" lon="5.14317">
        <ele>1178.3</ele>
        <time>2025-12-07T10:28:45Z</time>
      </trkpt>
      <trkpt lat="44.42522" lon="5.14328">
        <ele>1178.3</ele>
        <time>2025-12-07T10:29:05Z</time>
      </trkpt>
      <trkpt lat="44.42519" lon="5.14352">
        <ele>1180.4</ele>
        <time>2025-12-07T10:29:25Z</time>
      </trkpt>
      <trkpt lat="44.42516" lon="5.14376">
        <ele>1184</ele>
        <time>2025-12-07T10:29:45Z</time>
      </trkpt>
      <trkpt lat="44.42511" lon="5.14397">
        <ele>1187.1</ele>
        <time>2025-12-07T10:30:05Z</time>
      </trkpt>
      <trkpt lat="44.42506" lon="5.14415">
        <ele>1190.6</ele>
        <time>2025-12-07T10:30:25Z</time>
      </trkpt>
      <trkpt lat="44.42507" lon="5.1443">
        <ele>1193.4</ele>
        <time>2025-12-07T10:30:46Z</time>
      </trkpt>
      <trkpt lat="44.42505" lon="5.14445">
        <ele>1197.2</ele>
        <time>2025-12-07T10:31:06Z</time>
      </trkpt>
      <trkpt lat="44.42502" lon="5.14459">
        <ele>1200.6</ele>
        <time>2025-12-07T10:31:26Z</time>
      </trkpt>
      <trkpt lat="44.42499" lon="5.14475">
        <ele>1203.4</ele>
        <time>2025-12-07T10:31:46Z</time>
      </trkpt>
      <trkpt lat="44.42498" lon="5.14495">
        <ele>1206.2</ele>
        <time>2025-12-07T10:32:06Z</time>
      </trkpt>
      <trkpt lat="44.42501" lon="5.14514">
        <ele>1208.3</ele>
        <time>2025-12-07T10:32:26Z</time>
      </trkpt>
      <trkpt lat="44.425" lon="5.14521">
        <ele>1209.4</ele>
        <time>2025-12-07T10:32:46Z</time>
      </trkpt>
      <trkpt lat="44.42499" lon="5.1452">
        <ele>1212.7</ele>
        <time>2025-12-07T10:36:37Z</time>
      </trkpt>
      <trkpt lat="44.42499" lon="5.14514">
        <ele>1212.1</ele>
        <time>2025-12-07T10:37:01Z</time>
      </trkpt>
      <trkpt lat="44.42495" lon="5.14499">
        <ele>1210.6</ele>
        <time>2025-12-07T10:37:21Z</time>
      </trkpt>
      <trkpt lat="44.42496" lon="5.1448">
        <ele>1207.8</ele>
        <time>2025-12-07T10:37:41Z</time>
      </trkpt>
      <trkpt lat="44.42497" lon="5.14473">
        <ele>1207.1</ele>
        <time>2025-12-07T10:38:01Z</time>
      </trkpt>
      <trkpt lat="44.42501" lon="5.14448">
        <ele>1203</ele>
        <time>2025-12-07T10:38:21Z</time>
      </trkpt>
      <trkpt lat="44.42502" lon="5.14431">
        <ele>1199.7</ele>
        <time>2025-12-07T10:38:42Z</time>
      </trkpt>
      <trkpt lat="44.42504" lon="5.14407">
        <ele>1195.3</ele>
        <time>2025-12-07T10:39:02Z</time>
      </trkpt>
      <trkpt lat="44.42513" lon="5.14383">
        <ele>1190.6</ele>
        <time>2025-12-07T10:39:22Z</time>
      </trkpt>
      <trkpt lat="44.42518" lon="5.14353">
        <ele>1186.4</ele>
        <time>2025-12-07T10:39:42Z</time>
      </trkpt>
      <trkpt lat="44.42521" lon="5.14323">
        <ele>1182.3</ele>
        <time>2025-12-07T10:40:02Z</time>
      </trkpt>
      <trkpt lat="44.42528" lon="5.14297">
        <ele>1176.8</ele>
        <time>2025-12-07T10:40:22Z</time>
      </trkpt>
      <trkpt lat="44.42531" lon="5.14267">
        <ele>1173.4</ele>
        <time>2025-12-07T10:40:42Z</time>
      </trkpt>
      <trkpt lat="44.42542" lon="5.14246">
        <ele>1171</ele>
        <time>2025-12-07T10:41:02Z</time>
      </trkpt>
      <trkpt lat="44.42554" lon="5.14236">
        <ele>1168.2</ele>
        <time>2025-12-07T10:41:22Z</time>
      </trkpt>
      <trkpt lat="44.42563" lon="5.14231">
        <ele>1170.4</ele>
        <time>2025-12-07T10:41:42Z</time>
      </trkpt>
      <trkpt lat="44.42574" lon="5.14225">
        <ele>1175.1</ele>
        <time>2025-12-07T10:42:03Z</time>
      </trkpt>
      <trkpt lat="44.42583" lon="5.14219">
        <ele>1177.8</ele>
        <time>2025-12-07T10:42:23Z</time>
      </trkpt>
      <trkpt lat="44.42592" lon="5.14209">
        <ele>1181.9</ele>
        <time>2025-12-07T10:42:43Z</time>
      </trkpt>
      <trkpt lat="44.42601" lon="5.14205">
        <ele>1186.2</ele>
        <time>2025-12-07T10:43:03Z</time>
      </trkpt>
      <trkpt lat="44.42612" lon="5.14197">
        <ele>1189.8</ele>
        <time>2025-12-07T10:43:23Z</time>
      </trkpt>
      <trkpt lat="44.42623" lon="5.1419">
        <ele>1192.7</ele>
        <time>2025-12-07T10:43:43Z</time>
      </trkpt>
      <trkpt lat="44.42633" lon="5.14178">
        <ele>1195.9</ele>
        <time>2025-12-07T10:44:03Z</time>
      </trkpt>
      <trkpt lat="44.42642" lon="5.1417">
        <ele>1197.8</ele>
        <time>2025-12-07T10:44:23Z</time>
      </trkpt>
      <trkpt lat="44.4265" lon="5.14163">
        <ele>1200.7</ele>
        <time>2025-12-07T10:44:43Z</time>
      </trkpt>
      <trkpt lat="44.42658" lon="5.14156">
        <ele>1204.3</ele>
        <time>2025-12-07T10:45:03Z</time>
      </trkpt>
      <trkpt lat="44.42667" lon="5.14148">
        <ele>1208.6</ele>
        <time>2025-12-07T10:45:24Z</time>
      </trkpt>
      <trkpt lat="44.42669" lon="5.14142">
        <ele>1212.6</ele>
        <time>2025-12-07T10:49:13Z</time>
      </trkpt>
      <trkpt lat="44.42678" lon="5.14126">
        <ele>1214</ele>
        <time>2025-12-07T10:49:33Z</time>
      </trkpt>
      <trkpt lat="44.42684" lon="5.141">
        <ele>1213.2</ele>
        <time>2025-12-07T10:49:53Z</time>
      </trkpt>
      <trkpt lat="44.42689" lon="5.14072">
        <ele>1210.7</ele>
        <time>2025-12-07T10:50:13Z</time>
      </trkpt>
      <trkpt lat="44.42687" lon="5.14042">
        <ele>1208.2</ele>
        <time>2025-12-07T10:50:33Z</time>
      </trkpt>
      <trkpt lat="44.42687" lon="5.1402">
        <ele>1206.2</ele>
        <time>2025-12-07T10:50:54Z</time>
      </trkpt>
      <trkpt lat="44.42683" lon="5.13998">
        <ele>1203.5</ele>
        <time>2025-12-07T10:51:14Z</time>
      </trkpt>
      <trkpt lat="44.42682" lon="5.13978">
        <ele>1199.7</ele>
        <time>2025-12-07T10:51:34Z</time>
      </trkpt>
      <trkpt lat="44.42679" lon="5.13956">
        <ele>1196.7</ele>
        <time>2025-12-07T10:51:54Z</time>
      </trkpt>
      <trkpt lat="44.42675" lon="5.13931">
        <ele>1193</ele>
        <time>2025-12-07T10:52:14Z</time>
      </trkpt>
      <trkpt lat="44.42673" lon="5.13906">
        <ele>1189.3</ele>
        <time>2025-12-07T10:52:34Z</time>
      </trkpt>
      <trkpt lat="44.4267" lon="5.13879">
        <ele>1186</ele>
        <time>2025-12-07T10:52:54Z</time>
      </trkpt>
      <trkpt lat="44.42667" lon="5.13852">
        <ele>1183.4</ele>
        <time>2025-12-07T10:53:14Z</time>
      </trkpt>
      <trkpt lat="44.42668" lon="5.13824">
        <ele>1182.5</ele>
        <time>2025-12-07T10:53:34Z</time>
      </trkpt>
      <trkpt lat="44.42664" lon="5.13801">
        <ele>1181.2</ele>
        <time>2025-12-07T10:53:54Z</time>
      </trkpt>
      <trkpt lat="44.42662" lon="5.13788">
        <ele>1181</ele>
        <time>2025-12-07T10:54:15Z</time>
      </trkpt>
      <trkpt lat="44.42663" lon="5.13763">
        <ele>1181.9</ele>
        <time>2025-12-07T10:54:35Z</time>
      </trkpt>
      <trkpt lat="44.42662" lon="5.13741">
        <ele>1180.7</ele>
        <time>2025-12-07T10:54:55Z</time>
      </trkpt>
      <trkpt lat="44.42663" lon="5.13727">
        <ele>1180.1</ele>
        <time>2025-12-07T10:56:05Z</time>
      </trkpt>
      <trkpt lat="44.42668" lon="5.13699">
        <ele>1178.9</ele>
        <time>2025-12-07T10:56:25Z</time>
      </trkpt>
      <trkpt lat="44.42673" lon="5.1367">
        <ele>1176.7</ele>
        <time>2025-12-07T10:56:45Z</time>
      </trkpt>
      <trkpt lat="44.42679" lon="5.13648">
        <ele>1173.8</ele>
        <time>2025-12-07T10:57:06Z</time>
      </trkpt>
      <trkpt lat="44.42687" lon="5.13624">
        <ele>1171.1</ele>
        <time>2025-12-07T10:57:26Z</time>
      </trkpt>
      <trkpt lat="44.42685" lon="5.13618">
        <ele>1171</ele>
        <time>2025-12-07T10:57:46Z</time>
      </trkpt>
      <trkpt lat="44.42684" lon="5.13617">
        <ele>1172.2</ele>
        <time>2025-12-07T11:33:53Z</time>
      </trkpt>
      <trkpt lat="44.42688" lon="5.13616">
        <ele>1171</ele>
        <time>2025-12-07T11:34:15Z</time>
      </trkpt>
      <trkpt lat="44.42701" lon="5.13603">
        <ele>1167.1</ele>
        <time>2025-12-07T11:34:35Z</time>
      </trkpt>
      <trkpt lat="44.42716" lon="5.1359">
        <ele>1163.9</ele>
        <time>2025-12-07T11:34:55Z</time>
      </trkpt>
      <trkpt lat="44.42731" lon="5.13573">
        <ele>1160.5</ele>
        <time>2025-12-07T11:35:16Z</time>
      </trkpt>
      <trkpt lat="44.42747" lon="5.13558">
        <ele>1157</ele>
        <time>2025-12-07T11:35:36Z</time>
      </trkpt>
      <trkpt lat="44.42766" lon="5.13545">
        <ele>1154</ele>
        <time>2025-12-07T11:35:56Z</time>
      </trkpt>
      <trkpt lat="44.42784" lon="5.1353">
        <ele>1150.7</ele>
        <time>2025-12-07T11:36:16Z</time>
      </trkpt>
      <trkpt lat="44.42804" lon="5.13515">
        <ele>1147.7</ele>
        <time>2025-12-07T11:36:36Z</time>
      </trkpt>
      <trkpt lat="44.42822" lon="5.13503">
        <ele>1145.6</ele>
        <time>2025-12-07T11:36:56Z</time>
      </trkpt>
      <trkpt lat="44.42841" lon="5.13489">
        <ele>1142.8</ele>
        <time>2025-12-07T11:37:16Z</time>
      </trkpt>
      <trkpt lat="44.42856" lon="5.13473">
        <ele>1139.9</ele>
        <time>2025-12-07T11:37:36Z</time>
      </trkpt>
      <trkpt lat="44.42867" lon="5.13462">
        <ele>1137.3</ele>
        <time>2025-12-07T11:37:56Z</time>
      </trkpt>
      <trkpt lat="44.42881" lon="5.13446">
        <ele>1133.2</ele>
        <time>2025-12-07T11:38:16Z</time>
      </trkpt>
      <trkpt lat="44.42897" lon="5.13433">
        <ele>1129.4</ele>
        <time>2025-12-07T11:38:37Z</time>
      </trkpt>
      <trkpt lat="44.42911" lon="5.13416">
        <ele>1124.5</ele>
        <time>2025-12-07T11:38:57Z</time>
      </trkpt>
      <trkpt lat="44.42923" lon="5.13397">
        <ele>1119.2</ele>
        <time>2025-12-07T11:39:17Z</time>
      </trkpt>
      <trkpt lat="44.42933" lon="5.13376">
        <ele>1113.6</ele>
        <time>2025-12-07T11:39:37Z</time>
      </trkpt>
      <trkpt lat="44.42944" lon="5.13354">
        <ele>1107.8</ele>
        <time>2025-12-07T11:39:57Z</time>
      </trkpt>
      <trkpt lat="44.42951" lon="5.13329">
        <ele>1100.9</ele>
        <time>2025-12-07T11:40:17Z</time>
      </trkpt>
      <trkpt lat="44.42953" lon="5.13304">
        <ele>1094.9</ele>
        <time>2025-12-07T11:40:37Z</time>
      </trkpt>
      <trkpt lat="44.42956" lon="5.13278">
        <ele>1088.9</ele>
        <time>2025-12-07T11:40:57Z</time>
      </trkpt>
      <trkpt lat="44.42958" lon="5.1325">
        <ele>1082.8</ele>
        <time>2025-12-07T11:41:17Z</time>
      </trkpt>
      <trkpt lat="44.42962" lon="5.13222">
        <ele>1076.6</ele>
        <time>2025-12-07T11:41:37Z</time>
      </trkpt>
      <trkpt lat="44.42964" lon="5.13212">
        <ele>1074.5</ele>
        <time>2025-12-07T11:41:58Z</time>
      </trkpt>
      <trkpt lat="44.42962" lon="5.1319">
        <ele>1069.3</ele>
        <time>2025-12-07T11:42:18Z</time>
      </trkpt>
      <trkpt lat="44.42956" lon="5.13166">
        <ele>1063.2</ele>
        <time>2025-12-07T11:42:38Z</time>
      </trkpt>
      <trkpt lat="44.42948" lon="5.13145">
        <ele>1057.5</ele>
        <time>2025-12-07T11:42:58Z</time>
      </trkpt>
      <trkpt lat="44.42941" lon="5.13122">
        <ele>1051.5</ele>
        <time>2025-12-07T11:43:18Z</time>
      </trkpt>
      <trkpt lat="44.42936" lon="5.13097">
        <ele>1044.9</ele>
        <time>2025-12-07T11:43:38Z</time>
      </trkpt>
      <trkpt lat="44.4293" lon="5.13077">
        <ele>1040.3</ele>
        <time>2025-12-07T11:43:58Z</time>
      </trkpt>
      <trkpt lat="44.42923" lon="5.13059">
        <ele>1035.5</ele>
        <time>2025-12-07T11:44:18Z</time>
      </trkpt>
      <trkpt lat="44.42915" lon="5.13041">
        <ele>1031.1</ele>
        <time>2025-12-07T11:44:38Z</time>
      </trkpt>
      <trkpt lat="44.42901" lon="5.13022">
        <ele>1026.2</ele>
        <time>2025-12-07T11:44:58Z</time>
      </trkpt>
      <trkpt lat="44.42889" lon="5.12996">
        <ele>1023.3</ele>
        <time>2025-12-07T11:45:19Z</time>
      </trkpt>
      <trkpt lat="44.4288" lon="5.12967">
        <ele>1020.9</ele>
        <time>2025-12-07T11:45:39Z</time>
      </trkpt>
      <trkpt lat="44.42876" lon="5.12953">
        <ele>1018.6</ele>
        <time>2025-12-07T11:45:59Z</time>
      </trkpt>
      <trkpt lat="44.4288" lon="5.12955">
        <ele>1017.1</ele>
        <time>2025-12-07T11:48:55Z</time>
      </trkpt>
      <trkpt lat="44.42901" lon="5.12959">
        <ele>1014.6</ele>
        <time>2025-12-07T11:49:15Z</time>
      </trkpt>
      <trkpt lat="44.42921" lon="5.12957">
        <ele>1015.1</ele>
        <time>2025-12-07T11:49:35Z</time>
      </trkpt>
      <trkpt lat="44.42937" lon="5.12975">
        <ele>1014.7</ele>
        <time>2025-12-07T11:49:55Z</time>
      </trkpt>
      <trkpt lat="44.42957" lon="5.12977">
        <ele>1011</ele>
        <time>2025-12-07T11:50:15Z</time>
      </trkpt>
      <trkpt lat="44.4298" lon="5.12982">
        <ele>1011.3</ele>
        <time>2025-12-07T11:50:35Z</time>
      </trkpt>
      <trkpt lat="44.42994" lon="5.12983">
        <ele>1011.2</ele>
        <time>2025-12-07T11:50:55Z</time>
      </trkpt>
      <trkpt lat="44.42998" lon="5.12985">
        <ele>1010.3</ele>
        <time>2025-12-07T11:51:48Z</time>
      </trkpt>
      <trkpt lat="44.42998" lon="5.12984">
        <ele>1011.3</ele>
        <time>2025-12-07T11:53:48Z</time>
      </trkpt>
      <trkpt lat="44.43009" lon="5.12976">
        <ele>1009.5</ele>
        <time>2025-12-07T11:54:08Z</time>
      </trkpt>
      <trkpt lat="44.43027" lon="5.12978">
        <ele>1005.1</ele>
        <time>2025-12-07T11:54:28Z</time>
      </trkpt>
      <trkpt lat="44.43047" lon="5.12983">
        <ele>1000.9</ele>
        <time>2025-12-07T11:54:48Z</time>
      </trkpt>
      <trkpt lat="44.43064" lon="5.12989">
        <ele>994.5</ele>
        <time>2025-12-07T11:55:09Z</time>
      </trkpt>
      <trkpt lat="44.43075" lon="5.1299">
        <ele>994.5</ele>
        <time>2025-12-07T11:55:29Z</time>
      </trkpt>
      <trkpt lat="44.43096" lon="5.12997">
        <ele>992.1</ele>
        <time>2025-12-07T11:55:49Z</time>
      </trkpt>
      <trkpt lat="44.43118" lon="5.13003">
        <ele>989.5</ele>
        <time>2025-12-07T11:56:09Z</time>
      </trkpt>
      <trkpt lat="44.43143" lon="5.13002">
        <ele>985.9</ele>
        <time>2025-12-07T11:56:29Z</time>
      </trkpt>
      <trkpt lat="44.43166" lon="5.12987">
        <ele>983.1</ele>
        <time>2025-12-07T11:56:49Z</time>
      </trkpt>
      <trkpt lat="44.43186" lon="5.12972">
        <ele>984.5</ele>
        <time>2025-12-07T11:57:09Z</time>
      </trkpt>
      <trkpt lat="44.43199" lon="5.12969">
        <ele>985.3</ele>
        <time>2025-12-07T11:57:29Z</time>
      </trkpt>
      <trkpt lat="44.43217" lon="5.12972">
        <ele>987</ele>
        <time>2025-12-07T11:57:49Z</time>
      </trkpt>
      <trkpt lat="44.43233" lon="5.12975">
        <ele>989</ele>
        <time>2025-12-07T11:58:09Z</time>
      </trkpt>
      <trkpt lat="44.4325" lon="5.12976">
        <ele>991.8</ele>
        <time>2025-12-07T11:58:30Z</time>
      </trkpt>
      <trkpt lat="44.43265" lon="5.12978">
        <ele>993.7</ele>
        <time>2025-12-07T11:58:50Z</time>
      </trkpt>
      <trkpt lat="44.43268" lon="5.1298">
        <ele>994.8</ele>
        <time>2025-12-07T11:59:10Z</time>
      </trkpt>
      <trkpt lat="44.43268" lon="5.12981">
        <ele>995.4</ele>
        <time>2025-12-07T11:59:30Z</time>
      </trkpt>
      <trkpt lat="44.43268" lon="5.12987">
        <ele>994.3</ele>
        <time>2025-12-07T11:59:50Z</time>
      </trkpt>
      <trkpt lat="44.43272" lon="5.1301">
        <ele>991.6</ele>
        <time>2025-12-07T12:00:10Z</time>
      </trkpt>
      <trkpt lat="44.43273" lon="5.13029">
        <ele>986.5</ele>
        <time>2025-12-07T12:00:30Z</time>
      </trkpt>
      <trkpt lat="44.43278" lon="5.13045">
        <ele>983.8</ele>
        <time>2025-12-07T12:00:50Z</time>
      </trkpt>
      <trkpt lat="44.43289" lon="5.13065">
        <ele>979.8</ele>
        <time>2025-12-07T12:01:10Z</time>
      </trkpt>
      <trkpt lat="44.43286" lon="5.13087">
        <ele>975.3</ele>
        <time>2025-12-07T12:01:30Z</time>
      </trkpt>
      <trkpt lat="44.43285" lon="5.13107">
        <ele>972.6</ele>
        <time>2025-12-07T12:01:51Z</time>
      </trkpt>
      <trkpt lat="44.4329" lon="5.13132">
        <ele>969.9</ele>
        <time>2025-12-07T12:02:11Z</time>
      </trkpt>
      <trkpt lat="44.43293" lon="5.13157">
        <ele>968.7</ele>
        <time>2025-12-07T12:02:31Z</time>
      </trkpt>
      <trkpt lat="44.43301" lon="5.13177">
        <ele>967.3</ele>
        <time>2025-12-07T12:02:51Z</time>
      </trkpt>
      <trkpt lat="44.4331" lon="5.13199">
        <ele>965.1</ele>
        <time>2025-12-07T12:03:11Z</time>
      </trkpt>
      <trkpt lat="44.43318" lon="5.13222">
        <ele>962.9</ele>
        <time>2025-12-07T12:03:31Z</time>
      </trkpt>
      <trkpt lat="44.43326" lon="5.13246">
        <ele>962</ele>
        <time>2025-12-07T12:03:51Z</time>
      </trkpt>
      <trkpt lat="44.4334" lon="5.13268">
        <ele>961.8</ele>
        <time>2025-12-07T12:04:11Z</time>
      </trkpt>
      <trkpt lat="44.43351" lon="5.13291">
        <ele>959.3</ele>
        <time>2025-12-07T12:04:31Z</time>
      </trkpt>
      <trkpt lat="44.43361" lon="5.13316">
        <ele>956.7</ele>
        <time>2025-12-07T12:04:51Z</time>
      </trkpt>
      <trkpt lat="44.43374" lon="5.13338">
        <ele>956.6</ele>
        <time>2025-12-07T12:05:12Z</time>
      </trkpt>
      <trkpt lat="44.43388" lon="5.13357">
        <ele>953.6</ele>
        <time>2025-12-07T12:05:32Z</time>
      </trkpt>
      <trkpt lat="44.43404" lon="5.13379">
        <ele>954</ele>
        <time>2025-12-07T12:05:52Z</time>
      </trkpt>
      <trkpt lat="44.43418" lon="5.13402">
        <ele>952.1</ele>
        <time>2025-12-07T12:06:12Z</time>
      </trkpt>
      <trkpt lat="44.43432" lon="5.13424">
        <ele>951.2</ele>
        <time>2025-12-07T12:06:32Z</time>
      </trkpt>
      <trkpt lat="44.43447" lon="5.1344">
        <ele>947.7</ele>
        <time>2025-12-07T12:06:52Z</time>
      </trkpt>
      <trkpt lat="44.4346" lon="5.13461">
        <ele>944.3</ele>
        <time>2025-12-07T12:07:12Z</time>
      </trkpt>
      <trkpt lat="44.43476" lon="5.1348">
        <ele>940.6</ele>
        <time>2025-12-07T12:07:32Z</time>
      </trkpt>
      <trkpt lat="44.43487" lon="5.13485">
        <ele>941.2</ele>
        <time>2025-12-07T12:07:52Z</time>
      </trkpt>
      <trkpt lat="44.43489" lon="5.13486">
        <ele>942</ele>
        <time>2025-12-07T12:08:12Z</time>
      </trkpt>
      <trkpt lat="44.4349" lon="5.13485">
        <ele>942.3</ele>
        <time>2025-12-07T12:08:33Z</time>
      </trkpt>
      <trkpt lat="44.43504" lon="5.13489">
        <ele>944.1</ele>
        <time>2025-12-07T12:08:53Z</time>
      </trkpt>
      <trkpt lat="44.43526" lon="5.13497">
        <ele>943.5</ele>
        <time>2025-12-07T12:09:13Z</time>
      </trkpt>
      <trkpt lat="44.43547" lon="5.13505">
        <ele>943.6</ele>
        <time>2025-12-07T12:09:33Z</time>
      </trkpt>
      <trkpt lat="44.4357" lon="5.13512">
        <ele>941.8</ele>
        <time>2025-12-07T12:09:53Z</time>
      </trkpt>
      <trkpt lat="44.43593" lon="5.13514">
        <ele>940.3</ele>
        <time>2025-12-07T12:10:13Z</time>
      </trkpt>
      <trkpt lat="44.43613" lon="5.13518">
        <ele>938.6</ele>
        <time>2025-12-07T12:10:33Z</time>
      </trkpt>
      <trkpt lat="44.43636" lon="5.13518">
        <ele>937.9</ele>
        <time>2025-12-07T12:10:53Z</time>
      </trkpt>
      <trkpt lat="44.43658" lon="5.13523">
        <ele>937.6</ele>
        <time>2025-12-07T12:11:13Z</time>
      </trkpt>
      <trkpt lat="44.43681" lon="5.13529">
        <ele>937.9</ele>
        <time>2025-12-07T12:11:33Z</time>
      </trkpt>
      <trkpt lat="44.43703" lon="5.13538">
        <ele>937.6</ele>
        <time>2025-12-07T12:11:54Z</time>
      </trkpt>
      <trkpt lat="44.43724" lon="5.13547">
        <ele>937.4</ele>
        <time>2025-12-07T12:12:14Z</time>
      </trkpt>
      <trkpt lat="44.43742" lon="5.13559">
        <ele>936.7</ele>
        <time>2025-12-07T12:12:34Z</time>
      </trkpt>
      <trkpt lat="44.43748" lon="5.13581">
        <ele>933.3</ele>
        <time>2025-12-07T12:12:54Z</time>
      </trkpt>
      <trkpt lat="44.43762" lon="5.13597">
        <ele>931.2</ele>
        <time>2025-12-07T12:13:14Z</time>
      </trkpt>
      <trkpt lat="44.43777" lon="5.13588">
        <ele>927.7</ele>
        <time>2025-12-07T12:13:34Z</time>
      </trkpt>
      <trkpt lat="44.43799" lon="5.13578">
        <ele>923.8</ele>
        <time>2025-12-07T12:13:54Z</time>
      </trkpt>
      <trkpt lat="44.43821" lon="5.13571">
        <ele>921.3</ele>
        <time>2025-12-07T12:14:14Z</time>
      </trkpt>
      <trkpt lat="44.43839" lon="5.13561">
        <ele>918.2</ele>
        <time>2025-12-07T12:14:34Z</time>
      </trkpt>
      <trkpt lat="44.43856" lon="5.1356">
        <ele>913.9</ele>
        <time>2025-12-07T12:14:54Z</time>
      </trkpt>
      <trkpt lat="44.43874" lon="5.13556">
        <ele>910.8</ele>
        <time>2025-12-07T12:15:15Z</time>
      </trkpt>
      <trkpt lat="44.43892" lon="5.13551">
        <ele>907.6</ele>
        <time>2025-12-07T12:15:35Z</time>
      </trkpt>
      <trkpt lat="44.43907" lon="5.13549">
        <ele>904.9</ele>
        <time>2025-12-07T12:15:55Z</time>
      </trkpt>
      <trkpt lat="44.4392" lon="5.13546">
        <ele>903.2</ele>
        <time>2025-12-07T12:16:15Z</time>
      </trkpt>
      <trkpt lat="44.4392" lon="5.13546">
        <ele>902.9</ele>
        <time>2025-12-07T12:16:35Z</time>
      </trkpt>
      <trkpt lat="44.43922" lon="5.13552">
        <ele>904.4</ele>
        <time>2025-12-07T12:17:44Z</time>
      </trkpt>
      <trkpt lat="44.43936" lon="5.13569">
        <ele>905.3</ele>
        <time>2025-12-07T12:18:04Z</time>
      </trkpt>
      <trkpt lat="44.43951" lon="5.13582">
        <ele>906.7</ele>
        <time>2025-12-07T12:18:24Z</time>
      </trkpt>
      <trkpt lat="44.43964" lon="5.136">
        <ele>907.2</ele>
        <time>2025-12-07T12:18:44Z</time>
      </trkpt>
      <trkpt lat="44.43978" lon="5.13618">
        <ele>908.3</ele>
        <time>2025-12-07T12:19:04Z</time>
      </trkpt>
      <trkpt lat="44.43996" lon="5.13631">
        <ele>910</ele>
        <time>2025-12-07T12:19:25Z</time>
      </trkpt>
      <trkpt lat="44.44013" lon="5.13647">
        <ele>910.3</ele>
        <time>2025-12-07T12:19:45Z</time>
      </trkpt>
      <trkpt lat="44.44031" lon="5.1366">
        <ele>909.8</ele>
        <time>2025-12-07T12:20:05Z</time>
      </trkpt>
      <trkpt lat="44.44051" lon="5.13675">
        <ele>908.9</ele>
        <time>2025-12-07T12:20:25Z</time>
      </trkpt>
      <trkpt lat="44.44071" lon="5.13686">
        <ele>907.5</ele>
        <time>2025-12-07T12:20:45Z</time>
      </trkpt>
      <trkpt lat="44.44091" lon="5.13689">
        <ele>904.8</ele>
        <time>2025-12-07T12:21:05Z</time>
      </trkpt>
      <trkpt lat="44.44113" lon="5.13693">
        <ele>901.6</ele>
        <time>2025-12-07T12:21:25Z</time>
      </trkpt>
      <trkpt lat="44.44132" lon="5.13697">
        <ele>899.4</ele>
        <time>2025-12-07T12:21:45Z</time>
      </trkpt>
      <trkpt lat="44.44151" lon="5.1371">
        <ele>897</ele>
        <time>2025-12-07T12:22:05Z</time>
      </trkpt>
      <trkpt lat="44.44167" lon="5.13724">
        <ele>892.7</ele>
        <time>2025-12-07T12:22:25Z</time>
      </trkpt>
      <trkpt lat="44.44181" lon="5.13733">
        <ele>888.9</ele>
        <time>2025-12-07T12:22:46Z</time>
      </trkpt>
      <trkpt lat="44.44193" lon="5.13743">
        <ele>881.5</ele>
        <time>2025-12-07T12:23:06Z</time>
      </trkpt>
      <trkpt lat="44.44215" lon="5.13759">
        <ele>873.2</ele>
        <time>2025-12-07T12:23:26Z</time>
      </trkpt>
      <trkpt lat="44.44239" lon="5.13766">
        <ele>871.2</ele>
        <time>2025-12-07T12:23:46Z</time>
      </trkpt>
      <trkpt lat="44.44256" lon="5.13781">
        <ele>867.4</ele>
        <time>2025-12-07T12:24:06Z</time>
      </trkpt>
      <trkpt lat="44.44271" lon="5.13788">
        <ele>865.7</ele>
        <time>2025-12-07T12:24:26Z</time>
      </trkpt>
      <trkpt lat="44.44288" lon="5.13799">
        <ele>866.3</ele>
        <time>2025-12-07T12:24:46Z</time>
      </trkpt>
      <trkpt lat="44.44309" lon="5.13807">
        <ele>865.5</ele>
        <time>2025-12-07T12:25:06Z</time>
      </trkpt>
      <trkpt lat="44.44329" lon="5.13812">
        <ele>863.4</ele>
        <time>2025-12-07T12:25:26Z</time>
      </trkpt>
      <trkpt lat="44.4435" lon="5.13818">
        <ele>862.8</ele>
        <time>2025-12-07T12:25:46Z</time>
      </trkpt>
      <trkpt lat="44.4437" lon="5.13824">
        <ele>860.2</ele>
        <time>2025-12-07T12:26:07Z</time>
      </trkpt>
      <trkpt lat="44.44392" lon="5.13828">
        <ele>858.2</ele>
        <time>2025-12-07T12:26:27Z</time>
      </trkpt>
      <trkpt lat="44.44412" lon="5.13832">
        <ele>858</ele>
        <time>2025-12-07T12:26:47Z</time>
      </trkpt>
      <trkpt lat="44.44428" lon="5.13834">
        <ele>854.7</ele>
        <time>2025-12-07T12:27:07Z</time>
      </trkpt>
      <trkpt lat="44.44441" lon="5.13838">
        <ele>851.3</ele>
        <time>2025-12-07T12:27:27Z</time>
      </trkpt>
      <trkpt lat="44.44452" lon="5.1385">
        <ele>847.7</ele>
        <time>2025-12-07T12:27:47Z</time>
      </trkpt>
      <trkpt lat="44.44462" lon="5.13866">
        <ele>842.7</ele>
        <time>2025-12-07T12:28:07Z</time>
      </trkpt>
      <trkpt lat="44.44472" lon="5.13876">
        <ele>836.6</ele>
        <time>2025-12-07T12:28:27Z</time>
      </trkpt>
      <trkpt lat="44.44489" lon="5.13885">
        <ele>831.5</ele>
        <time>2025-12-07T12:28:47Z</time>
      </trkpt>
      <trkpt lat="44.44512" lon="5.1389">
        <ele>829.7</ele>
        <time>2025-12-07T12:29:07Z</time>
      </trkpt>
      <trkpt lat="44.44533" lon="5.13894">
        <ele>834.2</ele>
        <time>2025-12-07T12:29:28Z</time>
      </trkpt>
      <trkpt lat="44.4455" lon="5.13894">
        <ele>836.8</ele>
        <time>2025-12-07T12:29:48Z</time>
      </trkpt>
      <trkpt lat="44.44572" lon="5.13904">
        <ele>837</ele>
        <time>2025-12-07T12:30:08Z</time>
      </trkpt>
      <trkpt lat="44.44598" lon="5.13912">
        <ele>832.2</ele>
        <time>2025-12-07T12:30:28Z</time>
      </trkpt>
      <trkpt lat="44.44619" lon="5.13924">
        <ele>830.8</ele>
        <time>2025-12-07T12:30:48Z</time>
      </trkpt>
      <trkpt lat="44.44625" lon="5.13943">
        <ele>826.4</ele>
        <time>2025-12-07T12:31:08Z</time>
      </trkpt>
      <trkpt lat="44.44632" lon="5.13967">
        <ele>822.8</ele>
        <time>2025-12-07T12:31:28Z</time>
      </trkpt>
      <trkpt lat="44.4464" lon="5.13995">
        <ele>821.1</ele>
        <time>2025-12-07T12:31:48Z</time>
      </trkpt>
      <trkpt lat="44.4465" lon="5.14017">
        <ele>818.2</ele>
        <time>2025-12-07T12:32:08Z</time>
      </trkpt>
      <trkpt lat="44.44659" lon="5.14044">
        <ele>813.5</ele>
        <time>2025-12-07T12:32:28Z</time>
      </trkpt>
      <trkpt lat="44.44669" lon="5.14067">
        <ele>809.1</ele>
        <time>2025-12-07T12:32:49Z</time>
      </trkpt>
      <trkpt lat="44.44679" lon="5.1407">
        <ele>803.3</ele>
        <time>2025-12-07T12:33:09Z</time>
      </trkpt>
      <trkpt lat="44.44694" lon="5.14063">
        <ele>799.2</ele>
        <time>2025-12-07T12:33:29Z</time>
      </trkpt>
      <trkpt lat="44.4471" lon="5.14059">
        <ele>795</ele>
        <time>2025-12-07T12:33:49Z</time>
      </trkpt>
      <trkpt lat="44.44729" lon="5.14059">
        <ele>791.4</ele>
        <time>2025-12-07T12:34:09Z</time>
      </trkpt>
      <trkpt lat="44.44736" lon="5.14059">
        <ele>789.9</ele>
        <time>2025-12-07T12:34:29Z</time>
      </trkpt>
      <trkpt lat="44.44743" lon="5.14053">
        <ele>789.6</ele>
        <time>2025-12-07T12:34:49Z</time>
      </trkpt>
      <trkpt lat="44.44748" lon="5.14055">
        <ele>791.3</ele>
        <time>2025-12-07T12:37:53Z</time>
      </trkpt>
      <trkpt lat="44.44752" lon="5.14056">
        <ele>789</ele>
        <time>2025-12-07T12:39:46Z</time>
      </trkpt>
      <trkpt lat="44.44766" lon="5.1407">
        <ele>787.8</ele>
        <time>2025-12-07T12:40:06Z</time>
      </trkpt>
      <trkpt lat="44.44784" lon="5.14071">
        <ele>784.1</ele>
        <time>2025-12-07T12:40:27Z</time>
      </trkpt>
      <trkpt lat="44.44802" lon="5.14072">
        <ele>781.1</ele>
        <time>2025-12-07T12:40:47Z</time>
      </trkpt>
      <trkpt lat="44.44814" lon="5.1407">
        <ele>774.2</ele>
        <time>2025-12-07T12:41:07Z</time>
      </trkpt>
      <trkpt lat="44.44828" lon="5.14064">
        <ele>767.5</ele>
        <time>2025-12-07T12:41:27Z</time>
      </trkpt>
      <trkpt lat="44.44848" lon="5.14062">
        <ele>764.8</ele>
        <time>2025-12-07T12:41:47Z</time>
      </trkpt>
      <trkpt lat="44.44865" lon="5.14059">
        <ele>758.6</ele>
        <time>2025-12-07T12:42:07Z</time>
      </trkpt>
      <trkpt lat="44.44876" lon="5.14044">
        <ele>755</ele>
        <time>2025-12-07T12:42:27Z</time>
      </trkpt>
      <trkpt lat="44.44871" lon="5.14023">
        <ele>752.4</ele>
        <time>2025-12-07T12:42:47Z</time>
      </trkpt>
      <trkpt lat="44.44873" lon="5.14007">
        <ele>747.7</ele>
        <time>2025-12-07T12:43:07Z</time>
      </trkpt>
      <trkpt lat="44.44869" lon="5.13987">
        <ele>744.7</ele>
        <time>2025-12-07T12:43:27Z</time>
      </trkpt>
      <trkpt lat="44.44874" lon="5.13966">
        <ele>738</ele>
        <time>2025-12-07T12:43:48Z</time>
      </trkpt>
      <trkpt lat="44.44879" lon="5.1395">
        <ele>735.4</ele>
        <time>2025-12-07T12:44:08Z</time>
      </trkpt>
      <trkpt lat="44.44886" lon="5.1395">
        <ele>735.5</ele>
        <time>2025-12-07T12:44:28Z</time>
      </trkpt>
      <trkpt lat="44.4489" lon="5.13949">
        <ele>735.9</ele>
        <time>2025-12-07T12:46:23Z</time>
      </trkpt>
      <trkpt lat="44.44897" lon="5.13932">
        <ele>731.9</ele>
        <time>2025-12-07T12:46:43Z</time>
      </trkpt>
      <trkpt lat="44.44899" lon="5.13898">
        <ele>730.2</ele>
        <time>2025-12-07T12:47:03Z</time>
      </trkpt>
      <trkpt lat="44.44904" lon="5.13868">
        <ele>728.5</ele>
        <time>2025-12-07T12:47:23Z</time>
      </trkpt>
      <trkpt lat="44.44908" lon="5.13836">
        <ele>724.5</ele>
        <time>2025-12-07T12:47:43Z</time>
      </trkpt>
      <trkpt lat="44.44917" lon="5.13807">
        <ele>722.1</ele>
        <time>2025-12-07T12:48:03Z</time>
      </trkpt>
      <trkpt lat="44.44911" lon="5.13778">
        <ele>720.3</ele>
        <time>2025-12-07T12:48:23Z</time>
      </trkpt>
      <trkpt lat="44.449" lon="5.13755">
        <ele>717.5</ele>
        <time>2025-12-07T12:48:43Z</time>
      </trkpt>
      <trkpt lat="44.44906" lon="5.13734">
        <ele>715.1</ele>
        <time>2025-12-07T12:49:04Z</time>
      </trkpt>
      <trkpt lat="44.44911" lon="5.13704">
        <ele>712.4</ele>
        <time>2025-12-07T12:49:24Z</time>
      </trkpt>
      <trkpt lat="44.4492" lon="5.13676">
        <ele>709.1</ele>
        <time>2025-12-07T12:49:44Z</time>
      </trkpt>
      <trkpt lat="44.44923" lon="5.13694">
        <ele>706.5</ele>
        <time>2025-12-07T12:50:04Z</time>
      </trkpt>
      <trkpt lat="44.44933" lon="5.13685">
        <ele>704.2</ele>
        <time>2025-12-07T12:50:24Z</time>
      </trkpt>
      <trkpt lat="44.4494" lon="5.13655">
        <ele>702.1</ele>
        <time>2025-12-07T12:50:44Z</time>
      </trkpt>
      <trkpt lat="44.44944" lon="5.13632">
        <ele>700.8</ele>
        <time>2025-12-07T12:51:04Z</time>
      </trkpt>
      <trkpt lat="44.44942" lon="5.13614">
        <ele>699.7</ele>
        <time>2025-12-07T12:51:24Z</time>
      </trkpt>
      <trkpt lat="44.44933" lon="5.13588">
        <ele>695.8</ele>
        <time>2025-12-07T12:51:44Z</time>
      </trkpt>
      <trkpt lat="44.44951" lon="5.13603">
        <ele>692.7</ele>
        <time>2025-12-07T12:52:04Z</time>
      </trkpt>
      <trkpt lat="44.44962" lon="5.13634">
        <ele>690.4</ele>
        <time>2025-12-07T12:52:25Z</time>
      </trkpt>
      <trkpt lat="44.44973" lon="5.13664">
        <ele>688.3</ele>
        <time>2025-12-07T12:52:45Z</time>
      </trkpt>
      <trkpt lat="44.44989" lon="5.13687">
        <ele>686</ele>
        <time>2025-12-07T12:53:05Z</time>
      </trkpt>
      <trkpt lat="44.45009" lon="5.13708">
        <ele>684.4</ele>
        <time>2025-12-07T12:53:25Z</time>
      </trkpt>
      <trkpt lat="44.45033" lon="5.13718">
        <ele>682.2</ele>
        <time>2025-12-07T12:53:45Z</time>
      </trkpt>
      <trkpt lat="44.45057" lon="5.13727">
        <ele>679</ele>
        <time>2025-12-07T12:54:05Z</time>
      </trkpt>
      <trkpt lat="44.4507" lon="5.13756">
        <ele>675.3</ele>
        <time>2025-12-07T12:54:25Z</time>
      </trkpt>
      <trkpt lat="44.45079" lon="5.13751">
        <ele>670.9</ele>
        <time>2025-12-07T12:54:45Z</time>
      </trkpt>
      <trkpt lat="44.45069" lon="5.13722">
        <ele>668.3</ele>
        <time>2025-12-07T12:55:05Z</time>
      </trkpt>
      <trkpt lat="44.45057" lon="5.13691">
        <ele>664.1</ele>
        <time>2025-12-07T12:55:25Z</time>
      </trkpt>
      <trkpt lat="44.45054" lon="5.13662">
        <ele>660.5</ele>
        <time>2025-12-07T12:55:46Z</time>
      </trkpt>
      <trkpt lat="44.45072" lon="5.1368">
        <ele>657.7</ele>
        <time>2025-12-07T12:56:06Z</time>
      </trkpt>
      <trkpt lat="44.45089" lon="5.13705">
        <ele>653.7</ele>
        <time>2025-12-07T12:56:26Z</time>
      </trkpt>
      <trkpt lat="44.45107" lon="5.13731">
        <ele>650.5</ele>
        <time>2025-12-07T12:56:46Z</time>
      </trkpt>
      <trkpt lat="44.45107" lon="5.1371">
        <ele>646.8</ele>
        <time>2025-12-07T12:57:06Z</time>
      </trkpt>
      <trkpt lat="44.45108" lon="5.13677">
        <ele>643.4</ele>
        <time>2025-12-07T12:57:26Z</time>
      </trkpt>
      <trkpt lat="44.4511" lon="5.13649">
        <ele>638.6</ele>
        <time>2025-12-07T12:57:46Z</time>
      </trkpt>
      <trkpt lat="44.45122" lon="5.1362">
        <ele>635.5</ele>
        <time>2025-12-07T12:58:06Z</time>
      </trkpt>
      <trkpt lat="44.45115" lon="5.13597">
        <ele>634.8</ele>
        <time>2025-12-07T12:58:26Z</time>
      </trkpt>
      <trkpt lat="44.45104" lon="5.13584">
        <ele>634.7</ele>
        <time>2025-12-07T12:58:46Z</time>
      </trkpt>
      <trkpt lat="44.45107" lon="5.13558">
        <ele>635.2</ele>
        <time>2025-12-07T12:59:07Z</time>
      </trkpt>
      <trkpt lat="44.4511" lon="5.13526">
        <ele>635.4</ele>
        <time>2025-12-07T12:59:27Z</time>
      </trkpt>
      <trkpt lat="44.45109" lon="5.1349">
        <ele>636.4</ele>
        <time>2025-12-07T12:59:47Z</time>
      </trkpt>
      <trkpt lat="44.45108" lon="5.13456">
        <ele>638.2</ele>
        <time>2025-12-07T13:00:07Z</time>
      </trkpt>
      <trkpt lat="44.45106" lon="5.13424">
        <ele>640.1</ele>
        <time>2025-12-07T13:00:27Z</time>
      </trkpt>
      <trkpt lat="44.45102" lon="5.13393">
        <ele>639.1</ele>
        <time>2025-12-07T13:00:47Z</time>
      </trkpt>
      <trkpt lat="44.451" lon="5.13359">
        <ele>638</ele>
        <time>2025-12-07T13:01:07Z</time>
      </trkpt>
      <trkpt lat="44.45107" lon="5.13326">
        <ele>633.7</ele>
        <time>2025-12-07T13:01:27Z</time>
      </trkpt>
      <trkpt lat="44.45105" lon="5.1329">
        <ele>634.4</ele>
        <time>2025-12-07T13:01:47Z</time>
      </trkpt>
      <trkpt lat="44.45091" lon="5.13258">
        <ele>635.3</ele>
        <time>2025-12-07T13:02:07Z</time>
      </trkpt>
      <trkpt lat="44.45079" lon="5.13226">
        <ele>635.1</ele>
        <time>2025-12-07T13:02:28Z</time>
      </trkpt>
      <trkpt lat="44.45074" lon="5.13201">
        <ele>635.6</ele>
        <time>2025-12-07T13:02:48Z</time>
      </trkpt>
      <trkpt lat="44.45066" lon="5.13177">
        <ele>638.1</ele>
        <time>2025-12-07T13:03:08Z</time>
      </trkpt>
      <trkpt lat="44.45045" lon="5.13176">
        <ele>639.2</ele>
        <time>2025-12-07T13:03:28Z</time>
      </trkpt>
      <trkpt lat="44.45027" lon="5.13182">
        <ele>639.3</ele>
        <time>2025-12-07T13:03:48Z</time>
      </trkpt>
      <trkpt lat="44.45017" lon="5.13181">
        <ele>641.9</ele>
        <time>2025-12-07T13:04:08Z</time>
      </trkpt>
      <trkpt lat="44.4501" lon="5.13177">
        <ele>642</ele>
        <time>2025-12-07T13:04:28Z</time>
      </trkpt>
    </trkseg>
  </trk>
</gpx>